<?xml version="1.0" encoding="UTF-8" standalone="no" ?>
<gpx xmlns="http://www.topografix.com/GPX/1/1" xmlns:xsi="http://www.w3.org/2001/XMLSchema-instance" xsi:schemaLocation="http://www.topografix.com/GPX/1/1 http://www.topografix.com/GPX/1/1/gpx.xsd" version="1.1" creator="VisuGPX - https://www.visugpx.com">
  <metadata>
    <name>Alan &amp; Marie-Jo</name>
    <desc><![CDATA[Randon Pedestre CSB]]></desc>
  </metadata>
  <trk>
    <name><![CDATA[Le Tholonet Barrage Zola Bimont 15 NOV 2011]]></name>
    <trkseg>
      <trkpt lat="43.52233" lon="5.51065">
        <ele>174.14</ele>
        <time>2011-11-15T08:31:51Z</time>
      </trkpt>
      <trkpt lat="43.52231" lon="5.5107">
        <ele>172.21</ele>
        <time>2011-11-15T08:31:57Z</time>
      </trkpt>
      <trkpt lat="43.52223" lon="5.51087">
        <ele>181.83</ele>
        <time>2011-11-15T08:32:10Z</time>
      </trkpt>
      <trkpt lat="43.52209" lon="5.5111">
        <ele>176.54</ele>
        <time>2011-11-15T08:32:29Z</time>
      </trkpt>
      <trkpt lat="43.52202" lon="5.51131">
        <ele>178.46</ele>
        <time>2011-11-15T08:32:44Z</time>
      </trkpt>
      <trkpt lat="43.52199" lon="5.51134">
        <ele>178.94</ele>
        <time>2011-11-15T08:32:47Z</time>
      </trkpt>
      <trkpt lat="43.52197" lon="5.51141">
        <ele>181.35</ele>
        <time>2011-11-15T08:32:51Z</time>
      </trkpt>
      <trkpt lat="43.52192" lon="5.51155">
        <ele>183.75</ele>
        <time>2011-11-15T08:33:02Z</time>
      </trkpt>
      <trkpt lat="43.52185" lon="5.51177">
        <ele>186.15</ele>
        <time>2011-11-15T08:33:18Z</time>
      </trkpt>
      <trkpt lat="43.52181" lon="5.51188">
        <ele>188.08</ele>
        <time>2011-11-15T08:33:27Z</time>
      </trkpt>
      <trkpt lat="43.52176" lon="5.5121">
        <ele>192.4</ele>
        <time>2011-11-15T08:33:42Z</time>
      </trkpt>
      <trkpt lat="43.52176" lon="5.51229">
        <ele>191.44</ele>
        <time>2011-11-15T08:33:56Z</time>
      </trkpt>
      <trkpt lat="43.52177" lon="5.51248">
        <ele>194.32</ele>
        <time>2011-11-15T08:34:08Z</time>
      </trkpt>
      <trkpt lat="43.52176" lon="5.51259">
        <ele>196.73</ele>
        <time>2011-11-15T08:34:15Z</time>
      </trkpt>
      <trkpt lat="43.52179" lon="5.5127">
        <ele>199.61</ele>
        <time>2011-11-15T08:34:21Z</time>
      </trkpt>
      <trkpt lat="43.52187" lon="5.51284">
        <ele>194.32</ele>
        <time>2011-11-15T08:34:35Z</time>
      </trkpt>
      <trkpt lat="43.52197" lon="5.51306">
        <ele>192.88</ele>
        <time>2011-11-15T08:34:52Z</time>
      </trkpt>
      <trkpt lat="43.52205" lon="5.51329">
        <ele>192.88</ele>
        <time>2011-11-15T08:35:09Z</time>
      </trkpt>
      <trkpt lat="43.52208" lon="5.51355">
        <ele>200.57</ele>
        <time>2011-11-15T08:35:26Z</time>
      </trkpt>
      <trkpt lat="43.5221" lon="5.51381">
        <ele>204.42</ele>
        <time>2011-11-15T08:35:43Z</time>
      </trkpt>
      <trkpt lat="43.52212" lon="5.5141">
        <ele>205.86</ele>
        <time>2011-11-15T08:36:01Z</time>
      </trkpt>
      <trkpt lat="43.52214" lon="5.51428">
        <ele>202.98</ele>
        <time>2011-11-15T08:36:12Z</time>
      </trkpt>
      <trkpt lat="43.52223" lon="5.51432">
        <ele>202.01</ele>
        <time>2011-11-15T08:36:20Z</time>
      </trkpt>
      <trkpt lat="43.52239" lon="5.51426">
        <ele>202.49</ele>
        <time>2011-11-15T08:36:36Z</time>
      </trkpt>
      <trkpt lat="43.52255" lon="5.51432">
        <ele>198.17</ele>
        <time>2011-11-15T08:36:50Z</time>
      </trkpt>
      <trkpt lat="43.52265" lon="5.51435">
        <ele>189.04</ele>
        <time>2011-11-15T08:37:05Z</time>
      </trkpt>
      <trkpt lat="43.52281" lon="5.51436">
        <ele>188.08</ele>
        <time>2011-11-15T08:37:20Z</time>
      </trkpt>
      <trkpt lat="43.52296" lon="5.51443">
        <ele>191.44</ele>
        <time>2011-11-15T08:37:35Z</time>
      </trkpt>
      <trkpt lat="43.52306" lon="5.51451">
        <ele>216.43</ele>
        <time>2011-11-15T08:37:46Z</time>
      </trkpt>
      <trkpt lat="43.52322" lon="5.5145">
        <ele>224.12</ele>
        <time>2011-11-15T08:38:00Z</time>
      </trkpt>
      <trkpt lat="43.52324" lon="5.51451">
        <ele>222.68</ele>
        <time>2011-11-15T08:38:02Z</time>
      </trkpt>
      <trkpt lat="43.52328" lon="5.51452">
        <ele>215.47</ele>
        <time>2011-11-15T08:38:07Z</time>
      </trkpt>
      <trkpt lat="43.52343" lon="5.51455">
        <ele>218.36</ele>
        <time>2011-11-15T08:38:20Z</time>
      </trkpt>
      <trkpt lat="43.52351" lon="5.51456">
        <ele>228.45</ele>
        <time>2011-11-15T08:38:33Z</time>
      </trkpt>
      <trkpt lat="43.52365" lon="5.51461">
        <ele>238.54</ele>
        <time>2011-11-15T08:38:46Z</time>
      </trkpt>
      <trkpt lat="43.52375" lon="5.51472">
        <ele>239.99</ele>
        <time>2011-11-15T08:38:59Z</time>
      </trkpt>
      <trkpt lat="43.52386" lon="5.51482">
        <ele>241.91</ele>
        <time>2011-11-15T08:39:14Z</time>
      </trkpt>
      <trkpt lat="43.52388" lon="5.51482">
        <ele>242.39</ele>
        <time>2011-11-15T08:39:15Z</time>
      </trkpt>
      <trkpt lat="43.52403" lon="5.51491">
        <ele>242.87</ele>
        <time>2011-11-15T08:39:29Z</time>
      </trkpt>
      <trkpt lat="43.52408" lon="5.51505">
        <ele>240.95</ele>
        <time>2011-11-15T08:39:40Z</time>
      </trkpt>
      <trkpt lat="43.52421" lon="5.51516">
        <ele>240.47</ele>
        <time>2011-11-15T08:39:52Z</time>
      </trkpt>
      <trkpt lat="43.52431" lon="5.51518">
        <ele>239.51</ele>
        <time>2011-11-15T08:40:02Z</time>
      </trkpt>
      <trkpt lat="43.52437" lon="5.51518">
        <ele>237.1</ele>
        <time>2011-11-15T08:40:13Z</time>
      </trkpt>
      <trkpt lat="43.52445" lon="5.51512">
        <ele>234.22</ele>
        <time>2011-11-15T08:40:22Z</time>
      </trkpt>
      <trkpt lat="43.52448" lon="5.51504">
        <ele>230.37</ele>
        <time>2011-11-15T08:40:30Z</time>
      </trkpt>
      <trkpt lat="43.52464" lon="5.51491">
        <ele>238.06</ele>
        <time>2011-11-15T08:40:50Z</time>
      </trkpt>
      <trkpt lat="43.52468" lon="5.51509">
        <ele>238.06</ele>
        <time>2011-11-15T08:41:05Z</time>
      </trkpt>
      <trkpt lat="43.52472" lon="5.51516">
        <ele>237.1</ele>
        <time>2011-11-15T08:41:11Z</time>
      </trkpt>
      <trkpt lat="43.52474" lon="5.5153">
        <ele>239.99</ele>
        <time>2011-11-15T08:41:24Z</time>
      </trkpt>
      <trkpt lat="43.52476" lon="5.5154">
        <ele>238.54</ele>
        <time>2011-11-15T08:41:33Z</time>
      </trkpt>
      <trkpt lat="43.52478" lon="5.51547">
        <ele>236.62</ele>
        <time>2011-11-15T08:41:38Z</time>
      </trkpt>
      <trkpt lat="43.52479" lon="5.51563">
        <ele>238.54</ele>
        <time>2011-11-15T08:41:50Z</time>
      </trkpt>
      <trkpt lat="43.52477" lon="5.51568">
        <ele>239.51</ele>
        <time>2011-11-15T08:41:53Z</time>
      </trkpt>
      <trkpt lat="43.52479" lon="5.51588">
        <ele>241.43</ele>
        <time>2011-11-15T08:42:09Z</time>
      </trkpt>
      <trkpt lat="43.52478" lon="5.51609">
        <ele>241.43</ele>
        <time>2011-11-15T08:42:23Z</time>
      </trkpt>
      <trkpt lat="43.52478" lon="5.5161">
        <ele>241.91</ele>
        <time>2011-11-15T08:42:24Z</time>
      </trkpt>
      <trkpt lat="43.52477" lon="5.51614">
        <ele>242.39</ele>
        <time>2011-11-15T08:42:27Z</time>
      </trkpt>
      <trkpt lat="43.52474" lon="5.51635">
        <ele>244.31</ele>
        <time>2011-11-15T08:42:40Z</time>
      </trkpt>
      <trkpt lat="43.52472" lon="5.5166">
        <ele>243.83</ele>
        <time>2011-11-15T08:42:57Z</time>
      </trkpt>
      <trkpt lat="43.52472" lon="5.51663">
        <ele>244.31</ele>
        <time>2011-11-15T08:42:59Z</time>
      </trkpt>
      <trkpt lat="43.52471" lon="5.51668">
        <ele>243.83</ele>
        <time>2011-11-15T08:43:02Z</time>
      </trkpt>
      <trkpt lat="43.52472" lon="5.51673">
        <ele>244.31</ele>
        <time>2011-11-15T08:43:06Z</time>
      </trkpt>
      <trkpt lat="43.52475" lon="5.5169">
        <ele>242.87</ele>
        <time>2011-11-15T08:43:19Z</time>
      </trkpt>
      <trkpt lat="43.52474" lon="5.51701">
        <ele>239.51</ele>
        <time>2011-11-15T08:43:26Z</time>
      </trkpt>
      <trkpt lat="43.5247" lon="5.51729">
        <ele>245.27</ele>
        <time>2011-11-15T08:43:44Z</time>
      </trkpt>
      <trkpt lat="43.52471" lon="5.51732">
        <ele>246.23</ele>
        <time>2011-11-15T08:43:46Z</time>
      </trkpt>
      <trkpt lat="43.52476" lon="5.51744">
        <ele>251.52</ele>
        <time>2011-11-15T08:43:58Z</time>
      </trkpt>
      <trkpt lat="43.5248" lon="5.5175">
        <ele>254.41</ele>
        <time>2011-11-15T08:44:07Z</time>
      </trkpt>
      <trkpt lat="43.52486" lon="5.51759">
        <ele>255.85</ele>
        <time>2011-11-15T08:44:17Z</time>
      </trkpt>
      <trkpt lat="43.5249" lon="5.51767">
        <ele>260.17</ele>
        <time>2011-11-15T08:44:33Z</time>
      </trkpt>
      <trkpt lat="43.52499" lon="5.51771">
        <ele>264.02</ele>
        <time>2011-11-15T08:44:45Z</time>
      </trkpt>
      <trkpt lat="43.52509" lon="5.51779">
        <ele>270.27</ele>
        <time>2011-11-15T08:45:01Z</time>
      </trkpt>
      <trkpt lat="43.52509" lon="5.51793">
        <ele>269.31</ele>
        <time>2011-11-15T08:45:12Z</time>
      </trkpt>
      <trkpt lat="43.52514" lon="5.51797">
        <ele>269.79</ele>
        <time>2011-11-15T08:45:17Z</time>
      </trkpt>
      <trkpt lat="43.52523" lon="5.51805">
        <ele>273.15</ele>
        <time>2011-11-15T08:45:30Z</time>
      </trkpt>
      <trkpt lat="43.52526" lon="5.51819">
        <ele>275.56</ele>
        <time>2011-11-15T08:45:44Z</time>
      </trkpt>
      <trkpt lat="43.52528" lon="5.51824">
        <ele>277</ele>
        <time>2011-11-15T08:45:58Z</time>
      </trkpt>
      <trkpt lat="43.52531" lon="5.5182">
        <ele>281.32</ele>
        <time>2011-11-15T08:46:14Z</time>
      </trkpt>
      <trkpt lat="43.52537" lon="5.51818">
        <ele>285.17</ele>
        <time>2011-11-15T08:46:26Z</time>
      </trkpt>
      <trkpt lat="43.52543" lon="5.51818">
        <ele>281.8</ele>
        <time>2011-11-15T08:46:39Z</time>
      </trkpt>
      <trkpt lat="43.52547" lon="5.51824">
        <ele>284.21</ele>
        <time>2011-11-15T08:46:50Z</time>
      </trkpt>
      <trkpt lat="43.52549" lon="5.51828">
        <ele>277.48</ele>
        <time>2011-11-15T08:47:20Z</time>
      </trkpt>
      <trkpt lat="43.52548" lon="5.51822">
        <ele>275.07</ele>
        <time>2011-11-15T08:47:55Z</time>
      </trkpt>
      <trkpt lat="43.52549" lon="5.51815">
        <ele>278.44</ele>
        <time>2011-11-15T08:48:09Z</time>
      </trkpt>
      <trkpt lat="43.5255" lon="5.5181">
        <ele>277</ele>
        <time>2011-11-15T08:48:24Z</time>
      </trkpt>
      <trkpt lat="43.52554" lon="5.51822">
        <ele>273.63</ele>
        <time>2011-11-15T08:49:22Z</time>
      </trkpt>
      <trkpt lat="43.52551" lon="5.51827">
        <ele>276.04</ele>
        <time>2011-11-15T08:49:43Z</time>
      </trkpt>
      <trkpt lat="43.52556" lon="5.51828">
        <ele>286.13</ele>
        <time>2011-11-15T08:50:03Z</time>
      </trkpt>
      <trkpt lat="43.5256" lon="5.5183">
        <ele>280.84</ele>
        <time>2011-11-15T08:50:14Z</time>
      </trkpt>
      <trkpt lat="43.52563" lon="5.51823">
        <ele>274.11</ele>
        <time>2011-11-15T08:50:28Z</time>
      </trkpt>
      <trkpt lat="43.52563" lon="5.51814">
        <ele>273.15</ele>
        <time>2011-11-15T08:50:42Z</time>
      </trkpt>
      <trkpt lat="43.52564" lon="5.51803">
        <ele>273.15</ele>
        <time>2011-11-15T08:50:59Z</time>
      </trkpt>
      <trkpt lat="43.52569" lon="5.51785">
        <ele>273.15</ele>
        <time>2011-11-15T08:51:16Z</time>
      </trkpt>
      <trkpt lat="43.52569" lon="5.51769">
        <ele>271.23</ele>
        <time>2011-11-15T08:51:33Z</time>
      </trkpt>
      <trkpt lat="43.52572" lon="5.5176">
        <ele>269.79</ele>
        <time>2011-11-15T08:51:45Z</time>
      </trkpt>
      <trkpt lat="43.52575" lon="5.51743">
        <ele>263.54</ele>
        <time>2011-11-15T08:52:00Z</time>
      </trkpt>
      <trkpt lat="43.52578" lon="5.51721">
        <ele>263.06</ele>
        <time>2011-11-15T08:52:16Z</time>
      </trkpt>
      <trkpt lat="43.5258" lon="5.51703">
        <ele>259.21</ele>
        <time>2011-11-15T08:52:31Z</time>
      </trkpt>
      <trkpt lat="43.52584" lon="5.51684">
        <ele>255.37</ele>
        <time>2011-11-15T08:52:48Z</time>
      </trkpt>
      <trkpt lat="43.52587" lon="5.51672">
        <ele>253.93</ele>
        <time>2011-11-15T08:52:58Z</time>
      </trkpt>
      <trkpt lat="43.5259" lon="5.51656">
        <ele>251.04</ele>
        <time>2011-11-15T08:53:12Z</time>
      </trkpt>
      <trkpt lat="43.52595" lon="5.51637">
        <ele>248.16</ele>
        <time>2011-11-15T08:53:28Z</time>
      </trkpt>
      <trkpt lat="43.52596" lon="5.51623">
        <ele>241.43</ele>
        <time>2011-11-15T08:53:43Z</time>
      </trkpt>
      <trkpt lat="43.52598" lon="5.51603">
        <ele>243.35</ele>
        <time>2011-11-15T08:53:57Z</time>
      </trkpt>
      <trkpt lat="43.52603" lon="5.51587">
        <ele>240.47</ele>
        <time>2011-11-15T08:54:10Z</time>
      </trkpt>
      <trkpt lat="43.52603" lon="5.51583">
        <ele>239.99</ele>
        <time>2011-11-15T08:54:13Z</time>
      </trkpt>
      <trkpt lat="43.52604" lon="5.51579">
        <ele>239.51</ele>
        <time>2011-11-15T08:54:16Z</time>
      </trkpt>
      <trkpt lat="43.52605" lon="5.51572">
        <ele>238.54</ele>
        <time>2011-11-15T08:54:23Z</time>
      </trkpt>
      <trkpt lat="43.52609" lon="5.51554">
        <ele>235.18</ele>
        <time>2011-11-15T08:54:37Z</time>
      </trkpt>
      <trkpt lat="43.5261" lon="5.51553">
        <ele>235.18</ele>
        <time>2011-11-15T08:54:38Z</time>
      </trkpt>
      <trkpt lat="43.52609" lon="5.51528">
        <ele>233.26</ele>
        <time>2011-11-15T08:54:56Z</time>
      </trkpt>
      <trkpt lat="43.52606" lon="5.51509">
        <ele>231.33</ele>
        <time>2011-11-15T08:55:10Z</time>
      </trkpt>
      <trkpt lat="43.52604" lon="5.51487">
        <ele>228.93</ele>
        <time>2011-11-15T08:55:26Z</time>
      </trkpt>
      <trkpt lat="43.52602" lon="5.51472">
        <ele>224.12</ele>
        <time>2011-11-15T08:55:38Z</time>
      </trkpt>
      <trkpt lat="43.52603" lon="5.51452">
        <ele>222.68</ele>
        <time>2011-11-15T08:55:54Z</time>
      </trkpt>
      <trkpt lat="43.52606" lon="5.5143">
        <ele>223.64</ele>
        <time>2011-11-15T08:56:10Z</time>
      </trkpt>
      <trkpt lat="43.52602" lon="5.51413">
        <ele>220.76</ele>
        <time>2011-11-15T08:56:25Z</time>
      </trkpt>
      <trkpt lat="43.52599" lon="5.51402">
        <ele>219.8</ele>
        <time>2011-11-15T08:56:35Z</time>
      </trkpt>
      <trkpt lat="43.52594" lon="5.51387">
        <ele>216.91</ele>
        <time>2011-11-15T08:56:50Z</time>
      </trkpt>
      <trkpt lat="43.52587" lon="5.51371">
        <ele>210.19</ele>
        <time>2011-11-15T08:57:04Z</time>
      </trkpt>
      <trkpt lat="43.52583" lon="5.51355">
        <ele>203.94</ele>
        <time>2011-11-15T08:57:20Z</time>
      </trkpt>
      <trkpt lat="43.52575" lon="5.51338">
        <ele>196.73</ele>
        <time>2011-11-15T08:57:37Z</time>
      </trkpt>
      <trkpt lat="43.52568" lon="5.5132">
        <ele>198.17</ele>
        <time>2011-11-15T08:57:50Z</time>
      </trkpt>
      <trkpt lat="43.52565" lon="5.51299">
        <ele>199.13</ele>
        <time>2011-11-15T08:58:02Z</time>
      </trkpt>
      <trkpt lat="43.52564" lon="5.51297">
        <ele>199.13</ele>
        <time>2011-11-15T08:58:04Z</time>
      </trkpt>
      <trkpt lat="43.52558" lon="5.51275">
        <ele>194.32</ele>
        <time>2011-11-15T08:58:20Z</time>
      </trkpt>
      <trkpt lat="43.52557" lon="5.51271">
        <ele>195.77</ele>
        <time>2011-11-15T08:58:21Z</time>
      </trkpt>
      <trkpt lat="43.52559" lon="5.51242">
        <ele>202.98</ele>
        <time>2011-11-15T08:58:36Z</time>
      </trkpt>
      <trkpt lat="43.52561" lon="5.51218">
        <ele>201.05</ele>
        <time>2011-11-15T08:58:52Z</time>
      </trkpt>
      <trkpt lat="43.5256" lon="5.51196">
        <ele>193.84</ele>
        <time>2011-11-15T08:59:08Z</time>
      </trkpt>
      <trkpt lat="43.52557" lon="5.51177">
        <ele>187.11</ele>
        <time>2011-11-15T08:59:24Z</time>
      </trkpt>
      <trkpt lat="43.52556" lon="5.51156">
        <ele>189.04</ele>
        <time>2011-11-15T08:59:39Z</time>
      </trkpt>
      <trkpt lat="43.52553" lon="5.51142">
        <ele>186.63</ele>
        <time>2011-11-15T08:59:49Z</time>
      </trkpt>
      <trkpt lat="43.52552" lon="5.51137">
        <ele>184.23</ele>
        <time>2011-11-15T08:59:53Z</time>
      </trkpt>
      <trkpt lat="43.52546" lon="5.51112">
        <ele>178.94</ele>
        <time>2011-11-15T09:00:11Z</time>
      </trkpt>
      <trkpt lat="43.52544" lon="5.51098">
        <ele>176.54</ele>
        <time>2011-11-15T09:00:25Z</time>
      </trkpt>
      <trkpt lat="43.52545" lon="5.51083">
        <ele>187.59</ele>
        <time>2011-11-15T09:00:39Z</time>
      </trkpt>
      <trkpt lat="43.52541" lon="5.51075">
        <ele>191.44</ele>
        <time>2011-11-15T09:00:57Z</time>
      </trkpt>
      <trkpt lat="43.52537" lon="5.51075">
        <ele>189.04</ele>
        <time>2011-11-15T09:01:09Z</time>
      </trkpt>
      <trkpt lat="43.52535" lon="5.51075">
        <ele>189.52</ele>
        <time>2011-11-15T09:01:13Z</time>
      </trkpt>
      <trkpt lat="43.52526" lon="5.51082">
        <ele>186.15</ele>
        <time>2011-11-15T09:01:28Z</time>
      </trkpt>
      <trkpt lat="43.52523" lon="5.51083">
        <ele>182.79</ele>
        <time>2011-11-15T09:01:46Z</time>
      </trkpt>
      <trkpt lat="43.52514" lon="5.51084">
        <ele>177.5</ele>
        <time>2011-11-15T09:01:55Z</time>
      </trkpt>
      <trkpt lat="43.52525" lon="5.51082">
        <ele>187.59</ele>
        <time>2011-11-15T09:02:12Z</time>
      </trkpt>
      <trkpt lat="43.5253" lon="5.5107">
        <ele>189.04</ele>
        <time>2011-11-15T09:02:28Z</time>
      </trkpt>
      <trkpt lat="43.52533" lon="5.51065">
        <ele>186.15</ele>
        <time>2011-11-15T09:02:43Z</time>
      </trkpt>
      <trkpt lat="43.52535" lon="5.51068">
        <ele>188.56</ele>
        <time>2011-11-15T09:03:01Z</time>
      </trkpt>
      <trkpt lat="43.52535" lon="5.51054">
        <ele>185.67</ele>
        <time>2011-11-15T09:03:17Z</time>
      </trkpt>
      <trkpt lat="43.52534" lon="5.51041">
        <ele>188.08</ele>
        <time>2011-11-15T09:03:32Z</time>
      </trkpt>
      <trkpt lat="43.52529" lon="5.51033">
        <ele>193.84</ele>
        <time>2011-11-15T09:03:45Z</time>
      </trkpt>
      <trkpt lat="43.52527" lon="5.51037">
        <ele>199.13</ele>
        <time>2011-11-15T09:04:00Z</time>
      </trkpt>
      <trkpt lat="43.52522" lon="5.51026">
        <ele>197.21</ele>
        <time>2011-11-15T09:04:16Z</time>
      </trkpt>
      <trkpt lat="43.5252" lon="5.51008">
        <ele>184.71</ele>
        <time>2011-11-15T09:04:38Z</time>
      </trkpt>
      <trkpt lat="43.52522" lon="5.51">
        <ele>207.3</ele>
        <time>2011-11-15T09:04:54Z</time>
      </trkpt>
      <trkpt lat="43.52518" lon="5.51006">
        <ele>215.95</ele>
        <time>2011-11-15T09:05:07Z</time>
      </trkpt>
      <trkpt lat="43.52515" lon="5.50993">
        <ele>216.43</ele>
        <time>2011-11-15T09:05:21Z</time>
      </trkpt>
      <trkpt lat="43.52519" lon="5.50977">
        <ele>214.03</ele>
        <time>2011-11-15T09:05:38Z</time>
      </trkpt>
      <trkpt lat="43.52518" lon="5.50972">
        <ele>205.86</ele>
        <time>2011-11-15T09:05:49Z</time>
      </trkpt>
      <trkpt lat="43.52519" lon="5.50963">
        <ele>203.94</ele>
        <time>2011-11-15T09:05:59Z</time>
      </trkpt>
      <trkpt lat="43.5252" lon="5.50955">
        <ele>212.11</ele>
        <time>2011-11-15T09:06:13Z</time>
      </trkpt>
      <trkpt lat="43.52509" lon="5.50957">
        <ele>218.36</ele>
        <time>2011-11-15T09:06:27Z</time>
      </trkpt>
      <trkpt lat="43.52502" lon="5.50948">
        <ele>218.36</ele>
        <time>2011-11-15T09:06:41Z</time>
      </trkpt>
      <trkpt lat="43.52499" lon="5.50937">
        <ele>220.76</ele>
        <time>2011-11-15T09:06:54Z</time>
      </trkpt>
      <trkpt lat="43.52499" lon="5.50928">
        <ele>221.24</ele>
        <time>2011-11-15T09:07:11Z</time>
      </trkpt>
      <trkpt lat="43.52497" lon="5.50928">
        <ele>220.76</ele>
        <time>2011-11-15T09:07:16Z</time>
      </trkpt>
      <trkpt lat="43.52493" lon="5.5092">
        <ele>219.8</ele>
        <time>2011-11-15T09:07:25Z</time>
      </trkpt>
      <trkpt lat="43.5249" lon="5.50914">
        <ele>219.32</ele>
        <time>2011-11-15T09:07:39Z</time>
      </trkpt>
      <trkpt lat="43.52494" lon="5.50926">
        <ele>216.43</ele>
        <time>2011-11-15T09:07:53Z</time>
      </trkpt>
      <trkpt lat="43.52497" lon="5.50932">
        <ele>215.95</ele>
        <time>2011-11-15T09:08:08Z</time>
      </trkpt>
      <trkpt lat="43.52495" lon="5.50931">
        <ele>217.88</ele>
        <time>2011-11-15T09:08:35Z</time>
      </trkpt>
      <trkpt lat="43.52494" lon="5.50931">
        <ele>218.84</ele>
        <time>2011-11-15T09:08:56Z</time>
      </trkpt>
      <trkpt lat="43.5249" lon="5.50928">
        <ele>219.32</ele>
        <time>2011-11-15T09:09:17Z</time>
      </trkpt>
      <trkpt lat="43.52489" lon="5.50927">
        <ele>220.76</ele>
        <time>2011-11-15T09:09:36Z</time>
      </trkpt>
      <trkpt lat="43.52487" lon="5.5092">
        <ele>219.8</ele>
        <time>2011-11-15T09:09:53Z</time>
      </trkpt>
      <trkpt lat="43.52487" lon="5.50921">
        <ele>218.84</ele>
        <time>2011-11-15T09:11:09Z</time>
      </trkpt>
      <trkpt lat="43.5249" lon="5.50923">
        <ele>222.2</ele>
        <time>2011-11-15T09:11:31Z</time>
      </trkpt>
      <trkpt lat="43.52487" lon="5.50919">
        <ele>216.43</ele>
        <time>2011-11-15T09:12:13Z</time>
      </trkpt>
      <trkpt lat="43.52485" lon="5.50918">
        <ele>222.68</ele>
        <time>2011-11-15T09:12:38Z</time>
      </trkpt>
      <trkpt lat="43.52486" lon="5.50914">
        <ele>223.16</ele>
        <time>2011-11-15T09:13:01Z</time>
      </trkpt>
      <trkpt lat="43.52487" lon="5.5091">
        <ele>222.68</ele>
        <time>2011-11-15T09:13:19Z</time>
      </trkpt>
      <trkpt lat="43.52489" lon="5.509">
        <ele>225.09</ele>
        <time>2011-11-15T09:13:37Z</time>
      </trkpt>
      <trkpt lat="43.52489" lon="5.50884">
        <ele>226.05</ele>
        <time>2011-11-15T09:13:53Z</time>
      </trkpt>
      <trkpt lat="43.5249" lon="5.50863">
        <ele>226.05</ele>
        <time>2011-11-15T09:14:12Z</time>
      </trkpt>
      <trkpt lat="43.5249" lon="5.50857">
        <ele>227.01</ele>
        <time>2011-11-15T09:14:25Z</time>
      </trkpt>
      <trkpt lat="43.52485" lon="5.50838">
        <ele>229.89</ele>
        <time>2011-11-15T09:14:41Z</time>
      </trkpt>
      <trkpt lat="43.52475" lon="5.50819">
        <ele>234.22</ele>
        <time>2011-11-15T09:15:00Z</time>
      </trkpt>
      <trkpt lat="43.52469" lon="5.50806">
        <ele>230.85</ele>
        <time>2011-11-15T09:15:17Z</time>
      </trkpt>
      <trkpt lat="43.52466" lon="5.50799">
        <ele>228.93</ele>
        <time>2011-11-15T09:15:33Z</time>
      </trkpt>
      <trkpt lat="43.52462" lon="5.50783">
        <ele>227.01</ele>
        <time>2011-11-15T09:15:51Z</time>
      </trkpt>
      <trkpt lat="43.52464" lon="5.50769">
        <ele>222.68</ele>
        <time>2011-11-15T09:16:08Z</time>
      </trkpt>
      <trkpt lat="43.52465" lon="5.50758">
        <ele>224.12</ele>
        <time>2011-11-15T09:16:20Z</time>
      </trkpt>
      <trkpt lat="43.5247" lon="5.50739">
        <ele>221.72</ele>
        <time>2011-11-15T09:16:37Z</time>
      </trkpt>
      <trkpt lat="43.52472" lon="5.50714">
        <ele>221.72</ele>
        <time>2011-11-15T09:16:57Z</time>
      </trkpt>
      <trkpt lat="43.52468" lon="5.50703">
        <ele>223.16</ele>
        <time>2011-11-15T09:17:06Z</time>
      </trkpt>
      <trkpt lat="43.52459" lon="5.50691">
        <ele>218.36</ele>
        <time>2011-11-15T09:17:21Z</time>
      </trkpt>
      <trkpt lat="43.52444" lon="5.50678">
        <ele>206.34</ele>
        <time>2011-11-15T09:17:40Z</time>
      </trkpt>
      <trkpt lat="43.5243" lon="5.50669">
        <ele>202.49</ele>
        <time>2011-11-15T09:17:56Z</time>
      </trkpt>
      <trkpt lat="43.52416" lon="5.50656">
        <ele>207.3</ele>
        <time>2011-11-15T09:18:12Z</time>
      </trkpt>
      <trkpt lat="43.52416" lon="5.50652">
        <ele>207.78</ele>
        <time>2011-11-15T09:18:17Z</time>
      </trkpt>
      <trkpt lat="43.52412" lon="5.50637">
        <ele>211.15</ele>
        <time>2011-11-15T09:18:30Z</time>
      </trkpt>
      <trkpt lat="43.52413" lon="5.5061">
        <ele>210.67</ele>
        <time>2011-11-15T09:18:47Z</time>
      </trkpt>
      <trkpt lat="43.52417" lon="5.50598">
        <ele>208.74</ele>
        <time>2011-11-15T09:19:04Z</time>
      </trkpt>
      <trkpt lat="43.52417" lon="5.50596">
        <ele>209.7</ele>
        <time>2011-11-15T09:19:22Z</time>
      </trkpt>
      <trkpt lat="43.52409" lon="5.50584">
        <ele>207.3</ele>
        <time>2011-11-15T09:19:39Z</time>
      </trkpt>
      <trkpt lat="43.52404" lon="5.50571">
        <ele>205.86</ele>
        <time>2011-11-15T09:19:54Z</time>
      </trkpt>
      <trkpt lat="43.52404" lon="5.5055">
        <ele>202.49</ele>
        <time>2011-11-15T09:20:11Z</time>
      </trkpt>
      <trkpt lat="43.52405" lon="5.50528">
        <ele>200.09</ele>
        <time>2011-11-15T09:20:29Z</time>
      </trkpt>
      <trkpt lat="43.52409" lon="5.50502">
        <ele>199.13</ele>
        <time>2011-11-15T09:20:45Z</time>
      </trkpt>
      <trkpt lat="43.52422" lon="5.50476">
        <ele>199.61</ele>
        <time>2011-11-15T09:21:08Z</time>
      </trkpt>
      <trkpt lat="43.52435" lon="5.50462">
        <ele>198.17</ele>
        <time>2011-11-15T09:21:27Z</time>
      </trkpt>
      <trkpt lat="43.52437" lon="5.50448">
        <ele>200.57</ele>
        <time>2011-11-15T09:21:40Z</time>
      </trkpt>
      <trkpt lat="43.52442" lon="5.50435">
        <ele>206.34</ele>
        <time>2011-11-15T09:21:53Z</time>
      </trkpt>
      <trkpt lat="43.52444" lon="5.50425">
        <ele>206.82</ele>
        <time>2011-11-15T09:22:04Z</time>
      </trkpt>
      <trkpt lat="43.52449" lon="5.50414">
        <ele>207.3</ele>
        <time>2011-11-15T09:22:18Z</time>
      </trkpt>
      <trkpt lat="43.52458" lon="5.50412">
        <ele>205.86</ele>
        <time>2011-11-15T09:22:27Z</time>
      </trkpt>
      <trkpt lat="43.52472" lon="5.50407">
        <ele>203.46</ele>
        <time>2011-11-15T09:22:42Z</time>
      </trkpt>
      <trkpt lat="43.52483" lon="5.50407">
        <ele>206.34</ele>
        <time>2011-11-15T09:22:54Z</time>
      </trkpt>
      <trkpt lat="43.52495" lon="5.50412">
        <ele>212.11</ele>
        <time>2011-11-15T09:23:10Z</time>
      </trkpt>
      <trkpt lat="43.52507" lon="5.50419">
        <ele>214.99</ele>
        <time>2011-11-15T09:23:25Z</time>
      </trkpt>
      <trkpt lat="43.52519" lon="5.50418">
        <ele>218.84</ele>
        <time>2011-11-15T09:23:41Z</time>
      </trkpt>
      <trkpt lat="43.52534" lon="5.50415">
        <ele>222.2</ele>
        <time>2011-11-15T09:24:00Z</time>
      </trkpt>
      <trkpt lat="43.5255" lon="5.50418">
        <ele>228.93</ele>
        <time>2011-11-15T09:24:20Z</time>
      </trkpt>
      <trkpt lat="43.52564" lon="5.50425">
        <ele>233.26</ele>
        <time>2011-11-15T09:24:39Z</time>
      </trkpt>
      <trkpt lat="43.52577" lon="5.50423">
        <ele>229.89</ele>
        <time>2011-11-15T09:24:56Z</time>
      </trkpt>
      <trkpt lat="43.52591" lon="5.50424">
        <ele>234.7</ele>
        <time>2011-11-15T09:25:15Z</time>
      </trkpt>
      <trkpt lat="43.52607" lon="5.5043">
        <ele>237.1</ele>
        <time>2011-11-15T09:25:33Z</time>
      </trkpt>
      <trkpt lat="43.52621" lon="5.50432">
        <ele>238.54</ele>
        <time>2011-11-15T09:25:47Z</time>
      </trkpt>
      <trkpt lat="43.52637" lon="5.50428">
        <ele>239.99</ele>
        <time>2011-11-15T09:26:05Z</time>
      </trkpt>
      <trkpt lat="43.52652" lon="5.50428">
        <ele>244.79</ele>
        <time>2011-11-15T09:26:24Z</time>
      </trkpt>
      <trkpt lat="43.52675" lon="5.50424">
        <ele>246.23</ele>
        <time>2011-11-15T09:26:46Z</time>
      </trkpt>
      <trkpt lat="43.52689" lon="5.50428">
        <ele>246.72</ele>
        <time>2011-11-15T09:27:03Z</time>
      </trkpt>
      <trkpt lat="43.52699" lon="5.50425">
        <ele>248.64</ele>
        <time>2011-11-15T09:27:14Z</time>
      </trkpt>
      <trkpt lat="43.52715" lon="5.50427">
        <ele>252</ele>
        <time>2011-11-15T09:27:32Z</time>
      </trkpt>
      <trkpt lat="43.52725" lon="5.50424">
        <ele>255.37</ele>
        <time>2011-11-15T09:27:46Z</time>
      </trkpt>
      <trkpt lat="43.5273" lon="5.50423">
        <ele>256.33</ele>
        <time>2011-11-15T09:27:55Z</time>
      </trkpt>
      <trkpt lat="43.52742" lon="5.50419">
        <ele>258.25</ele>
        <time>2011-11-15T09:28:10Z</time>
      </trkpt>
      <trkpt lat="43.52756" lon="5.50411">
        <ele>260.65</ele>
        <time>2011-11-15T09:28:27Z</time>
      </trkpt>
      <trkpt lat="43.52771" lon="5.50409">
        <ele>263.06</ele>
        <time>2011-11-15T09:28:45Z</time>
      </trkpt>
      <trkpt lat="43.52775" lon="5.50413">
        <ele>264.02</ele>
        <time>2011-11-15T09:28:50Z</time>
      </trkpt>
      <trkpt lat="43.52777" lon="5.50418">
        <ele>264.5</ele>
        <time>2011-11-15T09:28:54Z</time>
      </trkpt>
      <trkpt lat="43.52779" lon="5.50448">
        <ele>265.94</ele>
        <time>2011-11-15T09:29:13Z</time>
      </trkpt>
      <trkpt lat="43.52779" lon="5.50454">
        <ele>266.9</ele>
        <time>2011-11-15T09:29:17Z</time>
      </trkpt>
      <trkpt lat="43.5278" lon="5.5046">
        <ele>267.86</ele>
        <time>2011-11-15T09:29:21Z</time>
      </trkpt>
      <trkpt lat="43.52785" lon="5.50484">
        <ele>269.31</ele>
        <time>2011-11-15T09:29:41Z</time>
      </trkpt>
      <trkpt lat="43.52795" lon="5.5051">
        <ele>269.31</ele>
        <time>2011-11-15T09:30:00Z</time>
      </trkpt>
      <trkpt lat="43.52807" lon="5.50534">
        <ele>271.23</ele>
        <time>2011-11-15T09:30:21Z</time>
      </trkpt>
      <trkpt lat="43.52818" lon="5.50556">
        <ele>273.15</ele>
        <time>2011-11-15T09:30:41Z</time>
      </trkpt>
      <trkpt lat="43.52834" lon="5.5058">
        <ele>275.56</ele>
        <time>2011-11-15T09:31:02Z</time>
      </trkpt>
      <trkpt lat="43.52848" lon="5.50597">
        <ele>275.56</ele>
        <time>2011-11-15T09:31:19Z</time>
      </trkpt>
      <trkpt lat="43.52865" lon="5.50614">
        <ele>277.48</ele>
        <time>2011-11-15T09:31:40Z</time>
      </trkpt>
      <trkpt lat="43.52876" lon="5.50643">
        <ele>281.8</ele>
        <time>2011-11-15T09:32:03Z</time>
      </trkpt>
      <trkpt lat="43.52877" lon="5.50653">
        <ele>281.8</ele>
        <time>2011-11-15T09:32:19Z</time>
      </trkpt>
      <trkpt lat="43.52877" lon="5.50652">
        <ele>282.77</ele>
        <time>2011-11-15T09:32:43Z</time>
      </trkpt>
      <trkpt lat="43.52878" lon="5.5066">
        <ele>283.73</ele>
        <time>2011-11-15T09:32:59Z</time>
      </trkpt>
      <trkpt lat="43.52886" lon="5.50666">
        <ele>290.46</ele>
        <time>2011-11-15T09:33:21Z</time>
      </trkpt>
      <trkpt lat="43.52888" lon="5.50673">
        <ele>287.09</ele>
        <time>2011-11-15T09:33:35Z</time>
      </trkpt>
      <trkpt lat="43.52896" lon="5.50689">
        <ele>280.36</ele>
        <time>2011-11-15T09:33:55Z</time>
      </trkpt>
      <trkpt lat="43.52907" lon="5.50704">
        <ele>277.48</ele>
        <time>2011-11-15T09:34:14Z</time>
      </trkpt>
      <trkpt lat="43.52916" lon="5.50721">
        <ele>277</ele>
        <time>2011-11-15T09:34:32Z</time>
      </trkpt>
      <trkpt lat="43.52923" lon="5.50723">
        <ele>274.59</ele>
        <time>2011-11-15T09:34:47Z</time>
      </trkpt>
      <trkpt lat="43.52932" lon="5.50724">
        <ele>276.04</ele>
        <time>2011-11-15T09:35:03Z</time>
      </trkpt>
      <trkpt lat="43.52946" lon="5.50721">
        <ele>274.59</ele>
        <time>2011-11-15T09:35:22Z</time>
      </trkpt>
      <trkpt lat="43.52956" lon="5.50716">
        <ele>274.59</ele>
        <time>2011-11-15T09:35:35Z</time>
      </trkpt>
      <trkpt lat="43.52965" lon="5.50713">
        <ele>273.15</ele>
        <time>2011-11-15T09:35:44Z</time>
      </trkpt>
      <trkpt lat="43.52977" lon="5.50721">
        <ele>269.79</ele>
        <time>2011-11-15T09:35:57Z</time>
      </trkpt>
      <trkpt lat="43.52994" lon="5.50735">
        <ele>265.46</ele>
        <time>2011-11-15T09:36:16Z</time>
      </trkpt>
      <trkpt lat="43.53012" lon="5.50737">
        <ele>262.58</ele>
        <time>2011-11-15T09:36:35Z</time>
      </trkpt>
      <trkpt lat="43.53031" lon="5.50739">
        <ele>259.69</ele>
        <time>2011-11-15T09:36:53Z</time>
      </trkpt>
      <trkpt lat="43.53043" lon="5.50743">
        <ele>257.77</ele>
        <time>2011-11-15T09:37:05Z</time>
      </trkpt>
      <trkpt lat="43.53059" lon="5.5076">
        <ele>253.93</ele>
        <time>2011-11-15T09:37:24Z</time>
      </trkpt>
      <trkpt lat="43.5307" lon="5.50775">
        <ele>249.6</ele>
        <time>2011-11-15T09:37:41Z</time>
      </trkpt>
      <trkpt lat="43.53075" lon="5.50781">
        <ele>248.64</ele>
        <time>2011-11-15T09:37:48Z</time>
      </trkpt>
      <trkpt lat="43.5309" lon="5.508">
        <ele>244.79</ele>
        <time>2011-11-15T09:38:09Z</time>
      </trkpt>
      <trkpt lat="43.53108" lon="5.5082">
        <ele>239.99</ele>
        <time>2011-11-15T09:38:34Z</time>
      </trkpt>
      <trkpt lat="43.53122" lon="5.5083">
        <ele>236.62</ele>
        <time>2011-11-15T09:38:51Z</time>
      </trkpt>
      <trkpt lat="43.53136" lon="5.5084">
        <ele>233.26</ele>
        <time>2011-11-15T09:39:07Z</time>
      </trkpt>
      <trkpt lat="43.53152" lon="5.50852">
        <ele>230.85</ele>
        <time>2011-11-15T09:39:25Z</time>
      </trkpt>
      <trkpt lat="43.53169" lon="5.5086">
        <ele>227.01</ele>
        <time>2011-11-15T09:39:43Z</time>
      </trkpt>
      <trkpt lat="43.53184" lon="5.50863">
        <ele>227.97</ele>
        <time>2011-11-15T09:40:00Z</time>
      </trkpt>
      <trkpt lat="43.532" lon="5.50859">
        <ele>227.49</ele>
        <time>2011-11-15T09:40:19Z</time>
      </trkpt>
      <trkpt lat="43.53211" lon="5.5086">
        <ele>225.09</ele>
        <time>2011-11-15T09:40:32Z</time>
      </trkpt>
      <trkpt lat="43.53226" lon="5.50862">
        <ele>222.2</ele>
        <time>2011-11-15T09:40:49Z</time>
      </trkpt>
      <trkpt lat="43.53236" lon="5.5086">
        <ele>223.64</ele>
        <time>2011-11-15T09:41:02Z</time>
      </trkpt>
      <trkpt lat="43.53238" lon="5.50857">
        <ele>225.09</ele>
        <time>2011-11-15T09:41:09Z</time>
      </trkpt>
      <trkpt lat="43.53255" lon="5.50856">
        <ele>221.24</ele>
        <time>2011-11-15T09:41:25Z</time>
      </trkpt>
      <trkpt lat="43.53266" lon="5.50856">
        <ele>217.4</ele>
        <time>2011-11-15T09:41:37Z</time>
      </trkpt>
      <trkpt lat="43.53274" lon="5.50861">
        <ele>213.07</ele>
        <time>2011-11-15T09:41:45Z</time>
      </trkpt>
      <trkpt lat="43.53289" lon="5.50874">
        <ele>207.3</ele>
        <time>2011-11-15T09:42:02Z</time>
      </trkpt>
      <trkpt lat="43.53291" lon="5.50881">
        <ele>207.78</ele>
        <time>2011-11-15T09:42:08Z</time>
      </trkpt>
      <trkpt lat="43.53298" lon="5.50904">
        <ele>207.3</ele>
        <time>2011-11-15T09:42:27Z</time>
      </trkpt>
      <trkpt lat="43.53304" lon="5.50921">
        <ele>212.11</ele>
        <time>2011-11-15T09:42:42Z</time>
      </trkpt>
      <trkpt lat="43.53309" lon="5.50938">
        <ele>214.51</ele>
        <time>2011-11-15T09:42:55Z</time>
      </trkpt>
      <trkpt lat="43.53314" lon="5.50957">
        <ele>213.07</ele>
        <time>2011-11-15T09:43:09Z</time>
      </trkpt>
      <trkpt lat="43.53316" lon="5.50981">
        <ele>217.4</ele>
        <time>2011-11-15T09:43:26Z</time>
      </trkpt>
      <trkpt lat="43.53317" lon="5.50993">
        <ele>219.8</ele>
        <time>2011-11-15T09:43:35Z</time>
      </trkpt>
      <trkpt lat="43.53323" lon="5.51015">
        <ele>224.61</ele>
        <time>2011-11-15T09:43:52Z</time>
      </trkpt>
      <trkpt lat="43.53327" lon="5.51034">
        <ele>225.09</ele>
        <time>2011-11-15T09:44:07Z</time>
      </trkpt>
      <trkpt lat="43.5333" lon="5.51058">
        <ele>227.97</ele>
        <time>2011-11-15T09:44:25Z</time>
      </trkpt>
      <trkpt lat="43.5333" lon="5.51059">
        <ele>227.97</ele>
        <time>2011-11-15T09:44:26Z</time>
      </trkpt>
      <trkpt lat="43.5333" lon="5.51062">
        <ele>227.97</ele>
        <time>2011-11-15T09:44:28Z</time>
      </trkpt>
      <trkpt lat="43.53321" lon="5.51076">
        <ele>231.33</ele>
        <time>2011-11-15T09:44:42Z</time>
      </trkpt>
      <trkpt lat="43.53309" lon="5.51091">
        <ele>234.7</ele>
        <time>2011-11-15T09:45:01Z</time>
      </trkpt>
      <trkpt lat="43.53307" lon="5.51107">
        <ele>235.66</ele>
        <time>2011-11-15T09:45:16Z</time>
      </trkpt>
      <trkpt lat="43.53308" lon="5.51123">
        <ele>239.99</ele>
        <time>2011-11-15T09:45:32Z</time>
      </trkpt>
      <trkpt lat="43.53311" lon="5.51142">
        <ele>240.95</ele>
        <time>2011-11-15T09:45:48Z</time>
      </trkpt>
      <trkpt lat="43.53311" lon="5.51163">
        <ele>243.35</ele>
        <time>2011-11-15T09:46:05Z</time>
      </trkpt>
      <trkpt lat="43.53306" lon="5.51181">
        <ele>242.87</ele>
        <time>2011-11-15T09:46:26Z</time>
      </trkpt>
      <trkpt lat="43.53295" lon="5.51182">
        <ele>243.83</ele>
        <time>2011-11-15T09:46:41Z</time>
      </trkpt>
      <trkpt lat="43.53278" lon="5.51179">
        <ele>244.31</ele>
        <time>2011-11-15T09:47:00Z</time>
      </trkpt>
      <trkpt lat="43.53277" lon="5.51178">
        <ele>243.83</ele>
        <time>2011-11-15T09:47:02Z</time>
      </trkpt>
      <trkpt lat="43.53265" lon="5.5116">
        <ele>240.95</ele>
        <time>2011-11-15T09:47:22Z</time>
      </trkpt>
      <trkpt lat="43.53259" lon="5.51149">
        <ele>240.47</ele>
        <time>2011-11-15T09:47:35Z</time>
      </trkpt>
      <trkpt lat="43.53251" lon="5.51139">
        <ele>239.02</ele>
        <time>2011-11-15T09:47:51Z</time>
      </trkpt>
      <trkpt lat="43.53247" lon="5.5114">
        <ele>243.35</ele>
        <time>2011-11-15T09:48:05Z</time>
      </trkpt>
      <trkpt lat="43.53243" lon="5.51138">
        <ele>245.75</ele>
        <time>2011-11-15T09:48:20Z</time>
      </trkpt>
      <trkpt lat="43.53239" lon="5.51141">
        <ele>245.75</ele>
        <time>2011-11-15T09:48:40Z</time>
      </trkpt>
      <trkpt lat="43.53238" lon="5.51141">
        <ele>243.35</ele>
        <time>2011-11-15T09:48:58Z</time>
      </trkpt>
      <trkpt lat="43.53235" lon="5.51142">
        <ele>242.87</ele>
        <time>2011-11-15T09:49:02Z</time>
      </trkpt>
      <trkpt lat="43.53221" lon="5.51136">
        <ele>245.27</ele>
        <time>2011-11-15T09:49:20Z</time>
      </trkpt>
      <trkpt lat="43.53208" lon="5.51132">
        <ele>241.91</ele>
        <time>2011-11-15T09:49:40Z</time>
      </trkpt>
      <trkpt lat="43.53205" lon="5.51129">
        <ele>241.91</ele>
        <time>2011-11-15T09:49:56Z</time>
      </trkpt>
      <trkpt lat="43.53226" lon="5.51143">
        <ele>245.27</ele>
        <time>2011-11-15T09:50:19Z</time>
      </trkpt>
      <trkpt lat="43.53233" lon="5.5114">
        <ele>246.72</ele>
        <time>2011-11-15T09:50:41Z</time>
      </trkpt>
      <trkpt lat="43.53238" lon="5.5114">
        <ele>246.23</ele>
        <time>2011-11-15T09:50:58Z</time>
      </trkpt>
      <trkpt lat="43.53245" lon="5.51137">
        <ele>243.83</ele>
        <time>2011-11-15T09:51:18Z</time>
      </trkpt>
      <trkpt lat="43.53247" lon="5.51135">
        <ele>241.91</ele>
        <time>2011-11-15T09:51:34Z</time>
      </trkpt>
      <trkpt lat="43.53251" lon="5.51138">
        <ele>243.83</ele>
        <time>2011-11-15T09:52:05Z</time>
      </trkpt>
      <trkpt lat="43.53258" lon="5.51135">
        <ele>244.31</ele>
        <time>2011-11-15T09:52:21Z</time>
      </trkpt>
      <trkpt lat="43.5326" lon="5.51141">
        <ele>241.91</ele>
        <time>2011-11-15T09:52:40Z</time>
      </trkpt>
      <trkpt lat="43.53264" lon="5.51148">
        <ele>242.39</ele>
        <time>2011-11-15T09:52:59Z</time>
      </trkpt>
      <trkpt lat="43.5327" lon="5.51161">
        <ele>244.79</ele>
        <time>2011-11-15T09:53:17Z</time>
      </trkpt>
      <trkpt lat="43.53277" lon="5.51174">
        <ele>245.75</ele>
        <time>2011-11-15T09:53:33Z</time>
      </trkpt>
      <trkpt lat="43.53291" lon="5.51183">
        <ele>243.35</ele>
        <time>2011-11-15T09:53:53Z</time>
      </trkpt>
      <trkpt lat="43.53304" lon="5.51177">
        <ele>243.83</ele>
        <time>2011-11-15T09:54:11Z</time>
      </trkpt>
      <trkpt lat="43.53307" lon="5.51185">
        <ele>246.23</ele>
        <time>2011-11-15T09:54:25Z</time>
      </trkpt>
      <trkpt lat="43.53306" lon="5.51192">
        <ele>247.2</ele>
        <time>2011-11-15T09:54:38Z</time>
      </trkpt>
      <trkpt lat="43.53302" lon="5.51202">
        <ele>246.23</ele>
        <time>2011-11-15T09:54:57Z</time>
      </trkpt>
      <trkpt lat="43.53293" lon="5.51207">
        <ele>248.64</ele>
        <time>2011-11-15T09:55:12Z</time>
      </trkpt>
      <trkpt lat="43.53284" lon="5.51218">
        <ele>253.44</ele>
        <time>2011-11-15T09:55:30Z</time>
      </trkpt>
      <trkpt lat="43.53278" lon="5.51232">
        <ele>255.85</ele>
        <time>2011-11-15T09:55:47Z</time>
      </trkpt>
      <trkpt lat="43.53275" lon="5.5125">
        <ele>263.06</ele>
        <time>2011-11-15T09:56:07Z</time>
      </trkpt>
      <trkpt lat="43.53276" lon="5.51264">
        <ele>263.06</ele>
        <time>2011-11-15T09:56:21Z</time>
      </trkpt>
      <trkpt lat="43.53281" lon="5.51269">
        <ele>259.69</ele>
        <time>2011-11-15T09:56:43Z</time>
      </trkpt>
      <trkpt lat="43.53285" lon="5.51284">
        <ele>266.42</ele>
        <time>2011-11-15T09:56:59Z</time>
      </trkpt>
      <trkpt lat="43.5329" lon="5.51299">
        <ele>266.9</ele>
        <time>2011-11-15T09:57:14Z</time>
      </trkpt>
      <trkpt lat="43.53305" lon="5.51302">
        <ele>262.58</ele>
        <time>2011-11-15T09:57:31Z</time>
      </trkpt>
      <trkpt lat="43.53307" lon="5.51302">
        <ele>262.1</ele>
        <time>2011-11-15T09:57:33Z</time>
      </trkpt>
      <trkpt lat="43.53325" lon="5.51304">
        <ele>265.46</ele>
        <time>2011-11-15T09:57:50Z</time>
      </trkpt>
      <trkpt lat="43.53338" lon="5.51305">
        <ele>263.06</ele>
        <time>2011-11-15T09:58:06Z</time>
      </trkpt>
      <trkpt lat="43.53353" lon="5.51301">
        <ele>263.06</ele>
        <time>2011-11-15T09:58:22Z</time>
      </trkpt>
      <trkpt lat="43.5337" lon="5.51295">
        <ele>268.83</ele>
        <time>2011-11-15T09:58:37Z</time>
      </trkpt>
      <trkpt lat="43.53386" lon="5.51292">
        <ele>268.83</ele>
        <time>2011-11-15T09:58:50Z</time>
      </trkpt>
      <trkpt lat="43.53396" lon="5.51285">
        <ele>268.35</ele>
        <time>2011-11-15T09:59:02Z</time>
      </trkpt>
      <trkpt lat="43.53398" lon="5.51284">
        <ele>267.38</ele>
        <time>2011-11-15T09:59:04Z</time>
      </trkpt>
      <trkpt lat="43.53403" lon="5.5127">
        <ele>265.94</ele>
        <time>2011-11-15T09:59:19Z</time>
      </trkpt>
      <trkpt lat="43.53412" lon="5.51252">
        <ele>269.79</ele>
        <time>2011-11-15T09:59:36Z</time>
      </trkpt>
      <trkpt lat="43.53415" lon="5.51244">
        <ele>272.67</ele>
        <time>2011-11-15T09:59:43Z</time>
      </trkpt>
      <trkpt lat="43.53427" lon="5.51232">
        <ele>273.15</ele>
        <time>2011-11-15T09:59:58Z</time>
      </trkpt>
      <trkpt lat="43.53432" lon="5.51235">
        <ele>270.75</ele>
        <time>2011-11-15T10:00:04Z</time>
      </trkpt>
      <trkpt lat="43.53439" lon="5.51244">
        <ele>265.46</ele>
        <time>2011-11-15T10:00:13Z</time>
      </trkpt>
      <trkpt lat="43.53448" lon="5.51258">
        <ele>259.69</ele>
        <time>2011-11-15T10:00:26Z</time>
      </trkpt>
      <trkpt lat="43.53459" lon="5.51271">
        <ele>260.65</ele>
        <time>2011-11-15T10:00:42Z</time>
      </trkpt>
      <trkpt lat="43.5347" lon="5.51283">
        <ele>269.31</ele>
        <time>2011-11-15T10:00:59Z</time>
      </trkpt>
      <trkpt lat="43.53475" lon="5.51286">
        <ele>270.27</ele>
        <time>2011-11-15T10:01:05Z</time>
      </trkpt>
      <trkpt lat="43.53492" lon="5.51285">
        <ele>272.67</ele>
        <time>2011-11-15T10:01:22Z</time>
      </trkpt>
      <trkpt lat="43.53499" lon="5.51281">
        <ele>276.04</ele>
        <time>2011-11-15T10:01:29Z</time>
      </trkpt>
      <trkpt lat="43.53511" lon="5.51266">
        <ele>279.88</ele>
        <time>2011-11-15T10:01:44Z</time>
      </trkpt>
      <trkpt lat="43.53512" lon="5.51264">
        <ele>280.36</ele>
        <time>2011-11-15T10:01:46Z</time>
      </trkpt>
      <trkpt lat="43.53513" lon="5.51261">
        <ele>280.36</ele>
        <time>2011-11-15T10:01:48Z</time>
      </trkpt>
      <trkpt lat="43.53515" lon="5.51254">
        <ele>281.32</ele>
        <time>2011-11-15T10:01:53Z</time>
      </trkpt>
      <trkpt lat="43.53511" lon="5.51239">
        <ele>280.84</ele>
        <time>2011-11-15T10:02:06Z</time>
      </trkpt>
      <trkpt lat="43.53509" lon="5.51235">
        <ele>281.8</ele>
        <time>2011-11-15T10:02:10Z</time>
      </trkpt>
      <trkpt lat="43.535" lon="5.51222">
        <ele>285.17</ele>
        <time>2011-11-15T10:02:26Z</time>
      </trkpt>
      <trkpt lat="43.53507" lon="5.51203">
        <ele>288.05</ele>
        <time>2011-11-15T10:02:43Z</time>
      </trkpt>
      <trkpt lat="43.53517" lon="5.51189">
        <ele>288.53</ele>
        <time>2011-11-15T10:02:59Z</time>
      </trkpt>
      <trkpt lat="43.53526" lon="5.51174">
        <ele>289.97</ele>
        <time>2011-11-15T10:03:15Z</time>
      </trkpt>
      <trkpt lat="43.53527" lon="5.51171">
        <ele>290.46</ele>
        <time>2011-11-15T10:03:18Z</time>
      </trkpt>
      <trkpt lat="43.53534" lon="5.51157">
        <ele>293.34</ele>
        <time>2011-11-15T10:03:33Z</time>
      </trkpt>
      <trkpt lat="43.53542" lon="5.51141">
        <ele>294.3</ele>
        <time>2011-11-15T10:03:49Z</time>
      </trkpt>
      <trkpt lat="43.5355" lon="5.51127">
        <ele>295.26</ele>
        <time>2011-11-15T10:04:03Z</time>
      </trkpt>
      <trkpt lat="43.53556" lon="5.51114">
        <ele>298.63</ele>
        <time>2011-11-15T10:04:18Z</time>
      </trkpt>
      <trkpt lat="43.53562" lon="5.51104">
        <ele>301.03</ele>
        <time>2011-11-15T10:04:33Z</time>
      </trkpt>
      <trkpt lat="43.53573" lon="5.51093">
        <ele>302.47</ele>
        <time>2011-11-15T10:04:50Z</time>
      </trkpt>
      <trkpt lat="43.53579" lon="5.51085">
        <ele>304.39</ele>
        <time>2011-11-15T10:05:03Z</time>
      </trkpt>
      <trkpt lat="43.53585" lon="5.51075">
        <ele>304.88</ele>
        <time>2011-11-15T10:05:18Z</time>
      </trkpt>
      <trkpt lat="43.53596" lon="5.51068">
        <ele>306.8</ele>
        <time>2011-11-15T10:05:35Z</time>
      </trkpt>
      <trkpt lat="43.5361" lon="5.51063">
        <ele>309.2</ele>
        <time>2011-11-15T10:05:53Z</time>
      </trkpt>
      <trkpt lat="43.53621" lon="5.51058">
        <ele>312.09</ele>
        <time>2011-11-15T10:06:08Z</time>
      </trkpt>
      <trkpt lat="43.53629" lon="5.51053">
        <ele>314.97</ele>
        <time>2011-11-15T10:06:22Z</time>
      </trkpt>
      <trkpt lat="43.53642" lon="5.5105">
        <ele>314.01</ele>
        <time>2011-11-15T10:06:39Z</time>
      </trkpt>
      <trkpt lat="43.5365" lon="5.51056">
        <ele>314.97</ele>
        <time>2011-11-15T10:06:56Z</time>
      </trkpt>
      <trkpt lat="43.53655" lon="5.51061">
        <ele>314.97</ele>
        <time>2011-11-15T10:07:03Z</time>
      </trkpt>
      <trkpt lat="43.53672" lon="5.51069">
        <ele>317.85</ele>
        <time>2011-11-15T10:07:21Z</time>
      </trkpt>
      <trkpt lat="43.53674" lon="5.5107">
        <ele>318.81</ele>
        <time>2011-11-15T10:07:24Z</time>
      </trkpt>
      <trkpt lat="43.53689" lon="5.5108">
        <ele>319.3</ele>
        <time>2011-11-15T10:07:41Z</time>
      </trkpt>
      <trkpt lat="43.53706" lon="5.51086">
        <ele>315.93</ele>
        <time>2011-11-15T10:07:57Z</time>
      </trkpt>
      <trkpt lat="43.53713" lon="5.51098">
        <ele>314.49</ele>
        <time>2011-11-15T10:08:13Z</time>
      </trkpt>
      <trkpt lat="43.53715" lon="5.51105">
        <ele>325.54</ele>
        <time>2011-11-15T10:08:29Z</time>
      </trkpt>
      <trkpt lat="43.53716" lon="5.51107">
        <ele>326.5</ele>
        <time>2011-11-15T10:08:30Z</time>
      </trkpt>
      <trkpt lat="43.5373" lon="5.51124">
        <ele>321.22</ele>
        <time>2011-11-15T10:08:45Z</time>
      </trkpt>
      <trkpt lat="43.5374" lon="5.51137">
        <ele>323.62</ele>
        <time>2011-11-15T10:09:02Z</time>
      </trkpt>
      <trkpt lat="43.53742" lon="5.51144">
        <ele>326.02</ele>
        <time>2011-11-15T10:09:06Z</time>
      </trkpt>
      <trkpt lat="43.53741" lon="5.51163">
        <ele>325.54</ele>
        <time>2011-11-15T10:09:22Z</time>
      </trkpt>
      <trkpt lat="43.53731" lon="5.51178">
        <ele>326.5</ele>
        <time>2011-11-15T10:09:39Z</time>
      </trkpt>
      <trkpt lat="43.53717" lon="5.51188">
        <ele>329.87</ele>
        <time>2011-11-15T10:09:54Z</time>
      </trkpt>
      <trkpt lat="43.53711" lon="5.51192">
        <ele>331.79</ele>
        <time>2011-11-15T10:10:02Z</time>
      </trkpt>
      <trkpt lat="43.53705" lon="5.51198">
        <ele>330.83</ele>
        <time>2011-11-15T10:10:07Z</time>
      </trkpt>
      <trkpt lat="43.5369" lon="5.5121">
        <ele>327.95</ele>
        <time>2011-11-15T10:10:23Z</time>
      </trkpt>
      <trkpt lat="43.53681" lon="5.51237">
        <ele>327.95</ele>
        <time>2011-11-15T10:10:44Z</time>
      </trkpt>
      <trkpt lat="43.53678" lon="5.51256">
        <ele>328.91</ele>
        <time>2011-11-15T10:11:00Z</time>
      </trkpt>
      <trkpt lat="43.53676" lon="5.51264">
        <ele>331.31</ele>
        <time>2011-11-15T10:11:19Z</time>
      </trkpt>
      <trkpt lat="43.53676" lon="5.51267">
        <ele>331.31</ele>
        <time>2011-11-15T10:11:22Z</time>
      </trkpt>
      <trkpt lat="43.53676" lon="5.5129">
        <ele>330.35</ele>
        <time>2011-11-15T10:11:39Z</time>
      </trkpt>
      <trkpt lat="43.53676" lon="5.5131">
        <ele>331.31</ele>
        <time>2011-11-15T10:11:54Z</time>
      </trkpt>
      <trkpt lat="43.53678" lon="5.51315">
        <ele>330.35</ele>
        <time>2011-11-15T10:11:58Z</time>
      </trkpt>
      <trkpt lat="43.53687" lon="5.51339">
        <ele>326.99</ele>
        <time>2011-11-15T10:12:17Z</time>
      </trkpt>
      <trkpt lat="43.53699" lon="5.51353">
        <ele>328.43</ele>
        <time>2011-11-15T10:12:34Z</time>
      </trkpt>
      <trkpt lat="43.53712" lon="5.51364">
        <ele>324.58</ele>
        <time>2011-11-15T10:12:51Z</time>
      </trkpt>
      <trkpt lat="43.53721" lon="5.51374">
        <ele>325.06</ele>
        <time>2011-11-15T10:13:04Z</time>
      </trkpt>
      <trkpt lat="43.53733" lon="5.51387">
        <ele>328.91</ele>
        <time>2011-11-15T10:13:19Z</time>
      </trkpt>
      <trkpt lat="43.5374" lon="5.51404">
        <ele>327.47</ele>
        <time>2011-11-15T10:13:32Z</time>
      </trkpt>
      <trkpt lat="43.53733" lon="5.5142">
        <ele>327.47</ele>
        <time>2011-11-15T10:13:48Z</time>
      </trkpt>
      <trkpt lat="43.53721" lon="5.5143">
        <ele>326.5</ele>
        <time>2011-11-15T10:14:03Z</time>
      </trkpt>
      <trkpt lat="43.53714" lon="5.51447">
        <ele>326.99</ele>
        <time>2011-11-15T10:14:17Z</time>
      </trkpt>
      <trkpt lat="43.53714" lon="5.51454">
        <ele>326.5</ele>
        <time>2011-11-15T10:14:21Z</time>
      </trkpt>
      <trkpt lat="43.53719" lon="5.51476">
        <ele>327.95</ele>
        <time>2011-11-15T10:14:37Z</time>
      </trkpt>
      <trkpt lat="43.53729" lon="5.51498">
        <ele>329.39</ele>
        <time>2011-11-15T10:14:53Z</time>
      </trkpt>
      <trkpt lat="43.53741" lon="5.51523">
        <ele>330.35</ele>
        <time>2011-11-15T10:15:13Z</time>
      </trkpt>
      <trkpt lat="43.53751" lon="5.51543">
        <ele>328.43</ele>
        <time>2011-11-15T10:15:31Z</time>
      </trkpt>
      <trkpt lat="43.53757" lon="5.51553">
        <ele>330.83</ele>
        <time>2011-11-15T10:15:40Z</time>
      </trkpt>
      <trkpt lat="43.53768" lon="5.51569">
        <ele>328.91</ele>
        <time>2011-11-15T10:15:56Z</time>
      </trkpt>
      <trkpt lat="43.53783" lon="5.51584">
        <ele>329.87</ele>
        <time>2011-11-15T10:16:13Z</time>
      </trkpt>
      <trkpt lat="43.5379" lon="5.5161">
        <ele>332.27</ele>
        <time>2011-11-15T10:16:30Z</time>
      </trkpt>
      <trkpt lat="43.53796" lon="5.51637">
        <ele>334.2</ele>
        <time>2011-11-15T10:16:51Z</time>
      </trkpt>
      <trkpt lat="43.53797" lon="5.51655">
        <ele>335.64</ele>
        <time>2011-11-15T10:17:02Z</time>
      </trkpt>
      <trkpt lat="43.53805" lon="5.51666">
        <ele>336.12</ele>
        <time>2011-11-15T10:17:19Z</time>
      </trkpt>
      <trkpt lat="43.53815" lon="5.51669">
        <ele>333.71</ele>
        <time>2011-11-15T10:17:38Z</time>
      </trkpt>
      <trkpt lat="43.53819" lon="5.51669">
        <ele>334.2</ele>
        <time>2011-11-15T10:17:47Z</time>
      </trkpt>
      <trkpt lat="43.53842" lon="5.51677">
        <ele>329.87</ele>
        <time>2011-11-15T10:18:07Z</time>
      </trkpt>
      <trkpt lat="43.5386" lon="5.51686">
        <ele>328.43</ele>
        <time>2011-11-15T10:18:23Z</time>
      </trkpt>
      <trkpt lat="43.53875" lon="5.51696">
        <ele>332.75</ele>
        <time>2011-11-15T10:18:40Z</time>
      </trkpt>
      <trkpt lat="43.53893" lon="5.51706">
        <ele>333.23</ele>
        <time>2011-11-15T10:18:56Z</time>
      </trkpt>
      <trkpt lat="43.53902" lon="5.51707">
        <ele>331.79</ele>
        <time>2011-11-15T10:19:04Z</time>
      </trkpt>
      <trkpt lat="43.53919" lon="5.51718">
        <ele>328.91</ele>
        <time>2011-11-15T10:19:19Z</time>
      </trkpt>
      <trkpt lat="43.53924" lon="5.51727">
        <ele>330.83</ele>
        <time>2011-11-15T10:19:25Z</time>
      </trkpt>
      <trkpt lat="43.5393" lon="5.51735">
        <ele>330.35</ele>
        <time>2011-11-15T10:19:31Z</time>
      </trkpt>
      <trkpt lat="43.53937" lon="5.51745">
        <ele>326.02</ele>
        <time>2011-11-15T10:19:39Z</time>
      </trkpt>
      <trkpt lat="43.53946" lon="5.51766">
        <ele>330.35</ele>
        <time>2011-11-15T10:19:56Z</time>
      </trkpt>
      <trkpt lat="43.53953" lon="5.51788">
        <ele>334.68</ele>
        <time>2011-11-15T10:20:12Z</time>
      </trkpt>
      <trkpt lat="43.53957" lon="5.5181">
        <ele>335.64</ele>
        <time>2011-11-15T10:20:28Z</time>
      </trkpt>
      <trkpt lat="43.53967" lon="5.51828">
        <ele>336.6</ele>
        <time>2011-11-15T10:20:43Z</time>
      </trkpt>
      <trkpt lat="43.53977" lon="5.51834">
        <ele>338.04</ele>
        <time>2011-11-15T10:20:56Z</time>
      </trkpt>
      <trkpt lat="43.53988" lon="5.51843">
        <ele>340.44</ele>
        <time>2011-11-15T10:21:11Z</time>
      </trkpt>
      <trkpt lat="43.53993" lon="5.51844">
        <ele>339.96</ele>
        <time>2011-11-15T10:21:16Z</time>
      </trkpt>
      <trkpt lat="43.54008" lon="5.51847">
        <ele>339.96</ele>
        <time>2011-11-15T10:21:31Z</time>
      </trkpt>
      <trkpt lat="43.54018" lon="5.51848">
        <ele>338.52</ele>
        <time>2011-11-15T10:21:42Z</time>
      </trkpt>
      <trkpt lat="43.54026" lon="5.51846">
        <ele>337.08</ele>
        <time>2011-11-15T10:21:51Z</time>
      </trkpt>
      <trkpt lat="43.54033" lon="5.51852">
        <ele>335.64</ele>
        <time>2011-11-15T10:21:58Z</time>
      </trkpt>
      <trkpt lat="43.54036" lon="5.51859">
        <ele>335.64</ele>
        <time>2011-11-15T10:22:03Z</time>
      </trkpt>
      <trkpt lat="43.54046" lon="5.51876">
        <ele>334.68</ele>
        <time>2011-11-15T10:22:18Z</time>
      </trkpt>
      <trkpt lat="43.54046" lon="5.51893">
        <ele>334.68</ele>
        <time>2011-11-15T10:22:33Z</time>
      </trkpt>
      <trkpt lat="43.54046" lon="5.51902">
        <ele>334.2</ele>
        <time>2011-11-15T10:22:40Z</time>
      </trkpt>
      <trkpt lat="43.54037" lon="5.51922">
        <ele>338.04</ele>
        <time>2011-11-15T10:22:57Z</time>
      </trkpt>
      <trkpt lat="43.54028" lon="5.51935">
        <ele>341.41</ele>
        <time>2011-11-15T10:23:11Z</time>
      </trkpt>
      <trkpt lat="43.54014" lon="5.51947">
        <ele>341.89</ele>
        <time>2011-11-15T10:23:26Z</time>
      </trkpt>
      <trkpt lat="43.54003" lon="5.51956">
        <ele>341.41</ele>
        <time>2011-11-15T10:23:39Z</time>
      </trkpt>
      <trkpt lat="43.53987" lon="5.51963">
        <ele>344.77</ele>
        <time>2011-11-15T10:23:55Z</time>
      </trkpt>
      <trkpt lat="43.53986" lon="5.51963">
        <ele>345.25</ele>
        <time>2011-11-15T10:23:56Z</time>
      </trkpt>
      <trkpt lat="43.53968" lon="5.51967">
        <ele>346.69</ele>
        <time>2011-11-15T10:24:12Z</time>
      </trkpt>
      <trkpt lat="43.53955" lon="5.51972">
        <ele>350.06</ele>
        <time>2011-11-15T10:24:24Z</time>
      </trkpt>
      <trkpt lat="43.53945" lon="5.51984">
        <ele>350.54</ele>
        <time>2011-11-15T10:24:36Z</time>
      </trkpt>
      <trkpt lat="43.53933" lon="5.51996">
        <ele>347.65</ele>
        <time>2011-11-15T10:24:49Z</time>
      </trkpt>
      <trkpt lat="43.53929" lon="5.52008">
        <ele>345.25</ele>
        <time>2011-11-15T10:24:58Z</time>
      </trkpt>
      <trkpt lat="43.53932" lon="5.52028">
        <ele>343.81</ele>
        <time>2011-11-15T10:25:11Z</time>
      </trkpt>
      <trkpt lat="43.53936" lon="5.52035">
        <ele>347.65</ele>
        <time>2011-11-15T10:25:23Z</time>
      </trkpt>
      <trkpt lat="43.53942" lon="5.52042">
        <ele>350.06</ele>
        <time>2011-11-15T10:25:31Z</time>
      </trkpt>
      <trkpt lat="43.5395" lon="5.52057">
        <ele>348.62</ele>
        <time>2011-11-15T10:25:40Z</time>
      </trkpt>
      <trkpt lat="43.53955" lon="5.52071">
        <ele>346.21</ele>
        <time>2011-11-15T10:25:52Z</time>
      </trkpt>
      <trkpt lat="43.53958" lon="5.52076">
        <ele>346.21</ele>
        <time>2011-11-15T10:25:56Z</time>
      </trkpt>
      <trkpt lat="43.53962" lon="5.52079">
        <ele>349.1</ele>
        <time>2011-11-15T10:26:03Z</time>
      </trkpt>
      <trkpt lat="43.53975" lon="5.52096">
        <ele>342.85</ele>
        <time>2011-11-15T10:26:19Z</time>
      </trkpt>
      <trkpt lat="43.53971" lon="5.52117">
        <ele>342.85</ele>
        <time>2011-11-15T10:26:35Z</time>
      </trkpt>
      <trkpt lat="43.53958" lon="5.52135">
        <ele>339</ele>
        <time>2011-11-15T10:26:53Z</time>
      </trkpt>
      <trkpt lat="43.53957" lon="5.52135">
        <ele>338.52</ele>
        <time>2011-11-15T10:26:54Z</time>
      </trkpt>
      <trkpt lat="43.53942" lon="5.52151">
        <ele>337.08</ele>
        <time>2011-11-15T10:27:14Z</time>
      </trkpt>
      <trkpt lat="43.53935" lon="5.52154">
        <ele>338.52</ele>
        <time>2011-11-15T10:27:25Z</time>
      </trkpt>
      <trkpt lat="43.53917" lon="5.52163">
        <ele>340.92</ele>
        <time>2011-11-15T10:27:45Z</time>
      </trkpt>
      <trkpt lat="43.53901" lon="5.52171">
        <ele>340.92</ele>
        <time>2011-11-15T10:28:02Z</time>
      </trkpt>
      <trkpt lat="43.53883" lon="5.52177">
        <ele>343.81</ele>
        <time>2011-11-15T10:28:19Z</time>
      </trkpt>
      <trkpt lat="43.53861" lon="5.52171">
        <ele>343.33</ele>
        <time>2011-11-15T10:28:40Z</time>
      </trkpt>
      <trkpt lat="43.53842" lon="5.52157">
        <ele>343.81</ele>
        <time>2011-11-15T10:29:00Z</time>
      </trkpt>
      <trkpt lat="43.53824" lon="5.52148">
        <ele>344.77</ele>
        <time>2011-11-15T10:29:20Z</time>
      </trkpt>
      <trkpt lat="43.53809" lon="5.52151">
        <ele>344.77</ele>
        <time>2011-11-15T10:29:38Z</time>
      </trkpt>
      <trkpt lat="43.53801" lon="5.52162">
        <ele>345.25</ele>
        <time>2011-11-15T10:29:53Z</time>
      </trkpt>
      <trkpt lat="43.53796" lon="5.52168">
        <ele>344.77</ele>
        <time>2011-11-15T10:30:11Z</time>
      </trkpt>
      <trkpt lat="43.53798" lon="5.52175">
        <ele>342.37</ele>
        <time>2011-11-15T10:30:27Z</time>
      </trkpt>
      <trkpt lat="43.538" lon="5.52182">
        <ele>340.44</ele>
        <time>2011-11-15T10:30:51Z</time>
      </trkpt>
      <trkpt lat="43.53806" lon="5.52202">
        <ele>340.92</ele>
        <time>2011-11-15T10:31:10Z</time>
      </trkpt>
      <trkpt lat="43.53813" lon="5.52223">
        <ele>341.89</ele>
        <time>2011-11-15T10:31:29Z</time>
      </trkpt>
      <trkpt lat="43.53817" lon="5.52232">
        <ele>342.37</ele>
        <time>2011-11-15T10:31:43Z</time>
      </trkpt>
      <trkpt lat="43.53831" lon="5.52252">
        <ele>343.81</ele>
        <time>2011-11-15T10:32:05Z</time>
      </trkpt>
      <trkpt lat="43.53843" lon="5.52264">
        <ele>344.77</ele>
        <time>2011-11-15T10:32:23Z</time>
      </trkpt>
      <trkpt lat="43.53853" lon="5.52279">
        <ele>345.25</ele>
        <time>2011-11-15T10:32:40Z</time>
      </trkpt>
      <trkpt lat="43.53862" lon="5.52294">
        <ele>344.29</ele>
        <time>2011-11-15T10:32:58Z</time>
      </trkpt>
      <trkpt lat="43.5387" lon="5.5231">
        <ele>345.73</ele>
        <time>2011-11-15T10:33:17Z</time>
      </trkpt>
      <trkpt lat="43.53874" lon="5.52324">
        <ele>346.21</ele>
        <time>2011-11-15T10:33:34Z</time>
      </trkpt>
      <trkpt lat="43.53878" lon="5.52341">
        <ele>345.73</ele>
        <time>2011-11-15T10:33:52Z</time>
      </trkpt>
      <trkpt lat="43.53879" lon="5.5236">
        <ele>344.77</ele>
        <time>2011-11-15T10:34:12Z</time>
      </trkpt>
      <trkpt lat="43.53882" lon="5.52377">
        <ele>345.25</ele>
        <time>2011-11-15T10:34:28Z</time>
      </trkpt>
      <trkpt lat="43.53885" lon="5.52387">
        <ele>345.73</ele>
        <time>2011-11-15T10:34:46Z</time>
      </trkpt>
      <trkpt lat="43.53885" lon="5.52398">
        <ele>346.21</ele>
        <time>2011-11-15T10:35:00Z</time>
      </trkpt>
      <trkpt lat="43.53888" lon="5.52416">
        <ele>347.17</ele>
        <time>2011-11-15T10:35:17Z</time>
      </trkpt>
      <trkpt lat="43.53888" lon="5.52437">
        <ele>350.06</ele>
        <time>2011-11-15T10:35:36Z</time>
      </trkpt>
      <trkpt lat="43.53891" lon="5.52453">
        <ele>351.02</ele>
        <time>2011-11-15T10:35:53Z</time>
      </trkpt>
      <trkpt lat="43.53895" lon="5.52454">
        <ele>351.98</ele>
        <time>2011-11-15T10:36:07Z</time>
      </trkpt>
      <trkpt lat="43.539" lon="5.52465">
        <ele>350.06</ele>
        <time>2011-11-15T10:36:24Z</time>
      </trkpt>
      <trkpt lat="43.53905" lon="5.52474">
        <ele>347.65</ele>
        <time>2011-11-15T10:36:39Z</time>
      </trkpt>
      <trkpt lat="43.53913" lon="5.52481">
        <ele>350.06</ele>
        <time>2011-11-15T10:36:55Z</time>
      </trkpt>
      <trkpt lat="43.53921" lon="5.5248">
        <ele>350.06</ele>
        <time>2011-11-15T10:37:09Z</time>
      </trkpt>
      <trkpt lat="43.53928" lon="5.52482">
        <ele>351.5</ele>
        <time>2011-11-15T10:37:17Z</time>
      </trkpt>
      <trkpt lat="43.53942" lon="5.52489">
        <ele>352.46</ele>
        <time>2011-11-15T10:37:35Z</time>
      </trkpt>
      <trkpt lat="43.5395" lon="5.525">
        <ele>350.06</ele>
        <time>2011-11-15T10:37:51Z</time>
      </trkpt>
      <trkpt lat="43.53952" lon="5.52513">
        <ele>348.62</ele>
        <time>2011-11-15T10:38:10Z</time>
      </trkpt>
      <trkpt lat="43.53954" lon="5.52518">
        <ele>348.13</ele>
        <time>2011-11-15T10:38:15Z</time>
      </trkpt>
      <trkpt lat="43.5395" lon="5.52545">
        <ele>346.69</ele>
        <time>2011-11-15T10:38:36Z</time>
      </trkpt>
      <trkpt lat="43.53954" lon="5.52574">
        <ele>346.69</ele>
        <time>2011-11-15T10:38:53Z</time>
      </trkpt>
      <trkpt lat="43.53963" lon="5.52605">
        <ele>346.21</ele>
        <time>2011-11-15T10:39:14Z</time>
      </trkpt>
      <trkpt lat="43.53969" lon="5.52628">
        <ele>345.73</ele>
        <time>2011-11-15T10:39:29Z</time>
      </trkpt>
      <trkpt lat="43.53967" lon="5.52657">
        <ele>348.13</ele>
        <time>2011-11-15T10:39:49Z</time>
      </trkpt>
      <trkpt lat="43.53974" lon="5.52674">
        <ele>347.65</ele>
        <time>2011-11-15T10:40:04Z</time>
      </trkpt>
      <trkpt lat="43.53981" lon="5.52694">
        <ele>348.62</ele>
        <time>2011-11-15T10:40:20Z</time>
      </trkpt>
      <trkpt lat="43.53987" lon="5.5272">
        <ele>349.58</ele>
        <time>2011-11-15T10:40:39Z</time>
      </trkpt>
      <trkpt lat="43.53988" lon="5.52727">
        <ele>349.58</ele>
        <time>2011-11-15T10:40:44Z</time>
      </trkpt>
      <trkpt lat="43.53988" lon="5.5275">
        <ele>352.46</ele>
        <time>2011-11-15T10:41:03Z</time>
      </trkpt>
      <trkpt lat="43.53987" lon="5.52774">
        <ele>354.86</ele>
        <time>2011-11-15T10:41:22Z</time>
      </trkpt>
      <trkpt lat="43.53988" lon="5.52778">
        <ele>354.38</ele>
        <time>2011-11-15T10:41:25Z</time>
      </trkpt>
      <trkpt lat="43.53991" lon="5.52799">
        <ele>354.38</ele>
        <time>2011-11-15T10:41:40Z</time>
      </trkpt>
      <trkpt lat="43.53995" lon="5.52815">
        <ele>353.42</ele>
        <time>2011-11-15T10:41:52Z</time>
      </trkpt>
      <trkpt lat="43.54003" lon="5.52818">
        <ele>353.9</ele>
        <time>2011-11-15T10:42:00Z</time>
      </trkpt>
      <trkpt lat="43.54021" lon="5.52833">
        <ele>355.34</ele>
        <time>2011-11-15T10:42:19Z</time>
      </trkpt>
      <trkpt lat="43.54022" lon="5.52834">
        <ele>354.86</ele>
        <time>2011-11-15T10:42:20Z</time>
      </trkpt>
      <trkpt lat="43.54036" lon="5.52849">
        <ele>354.86</ele>
        <time>2011-11-15T10:42:38Z</time>
      </trkpt>
      <trkpt lat="43.54039" lon="5.52853">
        <ele>354.38</ele>
        <time>2011-11-15T10:42:56Z</time>
      </trkpt>
      <trkpt lat="43.54037" lon="5.52855">
        <ele>356.31</ele>
        <time>2011-11-15T10:43:17Z</time>
      </trkpt>
      <trkpt lat="43.54037" lon="5.52855">
        <ele>356.79</ele>
        <time>2011-11-15T10:43:35Z</time>
      </trkpt>
      <trkpt lat="43.54038" lon="5.52855">
        <ele>355.83</ele>
        <time>2011-11-15T10:43:55Z</time>
      </trkpt>
      <trkpt lat="43.54039" lon="5.52855">
        <ele>355.83</ele>
        <time>2011-11-15T10:44:19Z</time>
      </trkpt>
      <trkpt lat="43.5404" lon="5.52855">
        <ele>355.83</ele>
        <time>2011-11-15T10:44:52Z</time>
      </trkpt>
      <trkpt lat="43.5404" lon="5.52856">
        <ele>357.27</ele>
        <time>2011-11-15T10:45:13Z</time>
      </trkpt>
      <trkpt lat="43.54045" lon="5.52861">
        <ele>356.79</ele>
        <time>2011-11-15T10:45:30Z</time>
      </trkpt>
      <trkpt lat="43.54056" lon="5.52871">
        <ele>356.31</ele>
        <time>2011-11-15T10:45:46Z</time>
      </trkpt>
      <trkpt lat="43.5407" lon="5.52887">
        <ele>356.31</ele>
        <time>2011-11-15T10:46:02Z</time>
      </trkpt>
      <trkpt lat="43.54076" lon="5.52907">
        <ele>356.31</ele>
        <time>2011-11-15T10:46:16Z</time>
      </trkpt>
      <trkpt lat="43.54089" lon="5.52934">
        <ele>359.19</ele>
        <time>2011-11-15T10:46:37Z</time>
      </trkpt>
      <trkpt lat="43.54102" lon="5.52952">
        <ele>358.23</ele>
        <time>2011-11-15T10:46:51Z</time>
      </trkpt>
      <trkpt lat="43.54117" lon="5.52968">
        <ele>360.15</ele>
        <time>2011-11-15T10:47:09Z</time>
      </trkpt>
      <trkpt lat="43.54131" lon="5.52982">
        <ele>357.27</ele>
        <time>2011-11-15T10:47:25Z</time>
      </trkpt>
      <trkpt lat="43.54133" lon="5.52987">
        <ele>357.27</ele>
        <time>2011-11-15T10:47:29Z</time>
      </trkpt>
      <trkpt lat="43.54131" lon="5.53012">
        <ele>355.83</ele>
        <time>2011-11-15T10:47:45Z</time>
      </trkpt>
      <trkpt lat="43.54129" lon="5.53019">
        <ele>354.86</ele>
        <time>2011-11-15T10:47:50Z</time>
      </trkpt>
      <trkpt lat="43.54122" lon="5.53036">
        <ele>354.38</ele>
        <time>2011-11-15T10:48:05Z</time>
      </trkpt>
      <trkpt lat="43.54115" lon="5.53048">
        <ele>357.27</ele>
        <time>2011-11-15T10:48:25Z</time>
      </trkpt>
      <trkpt lat="43.54115" lon="5.53053">
        <ele>357.75</ele>
        <time>2011-11-15T10:48:29Z</time>
      </trkpt>
      <trkpt lat="43.54111" lon="5.53065">
        <ele>358.23</ele>
        <time>2011-11-15T10:48:39Z</time>
      </trkpt>
      <trkpt lat="43.541" lon="5.53091">
        <ele>357.27</ele>
        <time>2011-11-15T10:48:59Z</time>
      </trkpt>
      <trkpt lat="43.54097" lon="5.53104">
        <ele>357.27</ele>
        <time>2011-11-15T10:49:08Z</time>
      </trkpt>
      <trkpt lat="43.54097" lon="5.53113">
        <ele>357.27</ele>
        <time>2011-11-15T10:49:14Z</time>
      </trkpt>
      <trkpt lat="43.54102" lon="5.5314">
        <ele>359.67</ele>
        <time>2011-11-15T10:49:32Z</time>
      </trkpt>
      <trkpt lat="43.54106" lon="5.53159">
        <ele>358.23</ele>
        <time>2011-11-15T10:49:47Z</time>
      </trkpt>
      <trkpt lat="43.54102" lon="5.53182">
        <ele>357.75</ele>
        <time>2011-11-15T10:50:08Z</time>
      </trkpt>
      <trkpt lat="43.54105" lon="5.53189">
        <ele>356.31</ele>
        <time>2011-11-15T10:50:22Z</time>
      </trkpt>
      <trkpt lat="43.54105" lon="5.53188">
        <ele>358.23</ele>
        <time>2011-11-15T10:50:46Z</time>
      </trkpt>
      <trkpt lat="43.54107" lon="5.53194">
        <ele>358.71</ele>
        <time>2011-11-15T10:51:04Z</time>
      </trkpt>
      <trkpt lat="43.54113" lon="5.53205">
        <ele>358.71</ele>
        <time>2011-11-15T10:51:16Z</time>
      </trkpt>
      <trkpt lat="43.54122" lon="5.53218">
        <ele>360.63</ele>
        <time>2011-11-15T10:51:31Z</time>
      </trkpt>
      <trkpt lat="43.54133" lon="5.5324">
        <ele>358.71</ele>
        <time>2011-11-15T10:51:54Z</time>
      </trkpt>
      <trkpt lat="43.54145" lon="5.53258">
        <ele>360.63</ele>
        <time>2011-11-15T10:52:16Z</time>
      </trkpt>
      <trkpt lat="43.54157" lon="5.53277">
        <ele>361.11</ele>
        <time>2011-11-15T10:52:36Z</time>
      </trkpt>
      <trkpt lat="43.54164" lon="5.53296">
        <ele>361.59</ele>
        <time>2011-11-15T10:52:50Z</time>
      </trkpt>
      <trkpt lat="43.54168" lon="5.5332">
        <ele>363.04</ele>
        <time>2011-11-15T10:53:09Z</time>
      </trkpt>
      <trkpt lat="43.54169" lon="5.5333">
        <ele>363.04</ele>
        <time>2011-11-15T10:53:17Z</time>
      </trkpt>
      <trkpt lat="43.54169" lon="5.53346">
        <ele>362.07</ele>
        <time>2011-11-15T10:53:33Z</time>
      </trkpt>
      <trkpt lat="43.54169" lon="5.53352">
        <ele>362.07</ele>
        <time>2011-11-15T10:53:37Z</time>
      </trkpt>
      <trkpt lat="43.5417" lon="5.53371">
        <ele>360.63</ele>
        <time>2011-11-15T10:53:50Z</time>
      </trkpt>
      <trkpt lat="43.54165" lon="5.53383">
        <ele>360.63</ele>
        <time>2011-11-15T10:53:59Z</time>
      </trkpt>
      <trkpt lat="43.54159" lon="5.53404">
        <ele>358.23</ele>
        <time>2011-11-15T10:54:17Z</time>
      </trkpt>
      <trkpt lat="43.54147" lon="5.53426">
        <ele>359.67</ele>
        <time>2011-11-15T10:54:37Z</time>
      </trkpt>
      <trkpt lat="43.54137" lon="5.53456">
        <ele>361.11</ele>
        <time>2011-11-15T10:54:59Z</time>
      </trkpt>
      <trkpt lat="43.54139" lon="5.53484">
        <ele>361.59</ele>
        <time>2011-11-15T10:55:19Z</time>
      </trkpt>
      <trkpt lat="43.54144" lon="5.53507">
        <ele>360.15</ele>
        <time>2011-11-15T10:55:36Z</time>
      </trkpt>
      <trkpt lat="43.54149" lon="5.53527">
        <ele>359.19</ele>
        <time>2011-11-15T10:55:50Z</time>
      </trkpt>
      <trkpt lat="43.54147" lon="5.53559">
        <ele>356.79</ele>
        <time>2011-11-15T10:56:14Z</time>
      </trkpt>
      <trkpt lat="43.54147" lon="5.53569">
        <ele>356.31</ele>
        <time>2011-11-15T10:56:21Z</time>
      </trkpt>
      <trkpt lat="43.54139" lon="5.53591">
        <ele>355.83</ele>
        <time>2011-11-15T10:56:38Z</time>
      </trkpt>
      <trkpt lat="43.54136" lon="5.53595">
        <ele>355.83</ele>
        <time>2011-11-15T10:56:42Z</time>
      </trkpt>
      <trkpt lat="43.54125" lon="5.5361">
        <ele>353.9</ele>
        <time>2011-11-15T10:57:00Z</time>
      </trkpt>
      <trkpt lat="43.54118" lon="5.53617">
        <ele>353.9</ele>
        <time>2011-11-15T10:57:16Z</time>
      </trkpt>
      <trkpt lat="43.54111" lon="5.53625">
        <ele>354.86</ele>
        <time>2011-11-15T10:57:30Z</time>
      </trkpt>
      <trkpt lat="43.54103" lon="5.53632">
        <ele>355.83</ele>
        <time>2011-11-15T10:57:46Z</time>
      </trkpt>
      <trkpt lat="43.54087" lon="5.53644">
        <ele>354.38</ele>
        <time>2011-11-15T10:58:07Z</time>
      </trkpt>
      <trkpt lat="43.5407" lon="5.53652">
        <ele>355.34</ele>
        <time>2011-11-15T10:58:28Z</time>
      </trkpt>
      <trkpt lat="43.54051" lon="5.53657">
        <ele>354.86</ele>
        <time>2011-11-15T10:58:51Z</time>
      </trkpt>
      <trkpt lat="43.54045" lon="5.53658">
        <ele>355.83</ele>
        <time>2011-11-15T10:59:09Z</time>
      </trkpt>
      <trkpt lat="43.54035" lon="5.53656">
        <ele>358.23</ele>
        <time>2011-11-15T10:59:34Z</time>
      </trkpt>
      <trkpt lat="43.54016" lon="5.53655">
        <ele>362.07</ele>
        <time>2011-11-15T10:59:57Z</time>
      </trkpt>
      <trkpt lat="43.53999" lon="5.5365">
        <ele>362.55</ele>
        <time>2011-11-15T11:00:17Z</time>
      </trkpt>
      <trkpt lat="43.53981" lon="5.53641">
        <ele>363.04</ele>
        <time>2011-11-15T11:00:37Z</time>
      </trkpt>
      <trkpt lat="43.53961" lon="5.53625">
        <ele>362.55</ele>
        <time>2011-11-15T11:00:58Z</time>
      </trkpt>
      <trkpt lat="43.53946" lon="5.53614">
        <ele>362.55</ele>
        <time>2011-11-15T11:01:16Z</time>
      </trkpt>
      <trkpt lat="43.53941" lon="5.5361">
        <ele>360.63</ele>
        <time>2011-11-15T11:01:31Z</time>
      </trkpt>
      <trkpt lat="43.53938" lon="5.53606">
        <ele>359.19</ele>
        <time>2011-11-15T11:01:48Z</time>
      </trkpt>
      <trkpt lat="43.53932" lon="5.53599">
        <ele>354.86</ele>
        <time>2011-11-15T11:02:11Z</time>
      </trkpt>
      <trkpt lat="43.53921" lon="5.53578">
        <ele>362.55</ele>
        <time>2011-11-15T11:02:31Z</time>
      </trkpt>
      <trkpt lat="43.53911" lon="5.53569">
        <ele>359.67</ele>
        <time>2011-11-15T11:02:46Z</time>
      </trkpt>
      <trkpt lat="43.53902" lon="5.53565">
        <ele>359.67</ele>
        <time>2011-11-15T11:02:56Z</time>
      </trkpt>
      <trkpt lat="43.53886" lon="5.53571">
        <ele>363.52</ele>
        <time>2011-11-15T11:03:13Z</time>
      </trkpt>
      <trkpt lat="43.53874" lon="5.53579">
        <ele>363.52</ele>
        <time>2011-11-15T11:03:28Z</time>
      </trkpt>
      <trkpt lat="43.53862" lon="5.53587">
        <ele>361.59</ele>
        <time>2011-11-15T11:03:44Z</time>
      </trkpt>
      <trkpt lat="43.53848" lon="5.53595">
        <ele>357.27</ele>
        <time>2011-11-15T11:04:04Z</time>
      </trkpt>
      <trkpt lat="43.53841" lon="5.53596">
        <ele>358.71</ele>
        <time>2011-11-15T11:04:11Z</time>
      </trkpt>
      <trkpt lat="43.53825" lon="5.53585">
        <ele>367.84</ele>
        <time>2011-11-15T11:04:27Z</time>
      </trkpt>
      <trkpt lat="43.53809" lon="5.5357">
        <ele>376.97</ele>
        <time>2011-11-15T11:04:47Z</time>
      </trkpt>
      <trkpt lat="43.53797" lon="5.53557">
        <ele>377.45</ele>
        <time>2011-11-15T11:05:04Z</time>
      </trkpt>
      <trkpt lat="43.53796" lon="5.53557">
        <ele>378.42</ele>
        <time>2011-11-15T11:05:05Z</time>
      </trkpt>
      <trkpt lat="43.53779" lon="5.53548">
        <ele>381.78</ele>
        <time>2011-11-15T11:05:25Z</time>
      </trkpt>
      <trkpt lat="43.53767" lon="5.53534">
        <ele>373.61</ele>
        <time>2011-11-15T11:05:39Z</time>
      </trkpt>
      <trkpt lat="43.53751" lon="5.53526">
        <ele>377.45</ele>
        <time>2011-11-15T11:05:55Z</time>
      </trkpt>
      <trkpt lat="43.53732" lon="5.53525">
        <ele>380.82</ele>
        <time>2011-11-15T11:06:13Z</time>
      </trkpt>
      <trkpt lat="43.53728" lon="5.53525">
        <ele>379.86</ele>
        <time>2011-11-15T11:06:17Z</time>
      </trkpt>
      <trkpt lat="43.5371" lon="5.53534">
        <ele>375.53</ele>
        <time>2011-11-15T11:06:37Z</time>
      </trkpt>
      <trkpt lat="43.53695" lon="5.53546">
        <ele>371.69</ele>
        <time>2011-11-15T11:06:56Z</time>
      </trkpt>
      <trkpt lat="43.53684" lon="5.53564">
        <ele>369.28</ele>
        <time>2011-11-15T11:07:13Z</time>
      </trkpt>
      <trkpt lat="43.53662" lon="5.53585">
        <ele>365.92</ele>
        <time>2011-11-15T11:07:38Z</time>
      </trkpt>
      <trkpt lat="43.53639" lon="5.53602">
        <ele>366.4</ele>
        <time>2011-11-15T11:08:01Z</time>
      </trkpt>
      <trkpt lat="43.53634" lon="5.53606">
        <ele>368.8</ele>
        <time>2011-11-15T11:08:21Z</time>
      </trkpt>
      <trkpt lat="43.53634" lon="5.53607">
        <ele>375.05</ele>
        <time>2011-11-15T11:08:57Z</time>
      </trkpt>
      <trkpt lat="43.53635" lon="5.53606">
        <ele>374.57</ele>
        <time>2011-11-15T11:09:22Z</time>
      </trkpt>
      <trkpt lat="43.53636" lon="5.53604">
        <ele>375.53</ele>
        <time>2011-11-15T11:09:42Z</time>
      </trkpt>
      <trkpt lat="43.53635" lon="5.536">
        <ele>373.13</ele>
        <time>2011-11-15T11:10:06Z</time>
      </trkpt>
      <trkpt lat="43.53638" lon="5.53588">
        <ele>374.57</ele>
        <time>2011-11-15T11:10:26Z</time>
      </trkpt>
      <trkpt lat="43.53642" lon="5.53583">
        <ele>374.09</ele>
        <time>2011-11-15T11:10:41Z</time>
      </trkpt>
      <trkpt lat="43.53643" lon="5.53583">
        <ele>373.13</ele>
        <time>2011-11-15T11:11:08Z</time>
      </trkpt>
      <trkpt lat="43.53656" lon="5.5358">
        <ele>362.55</ele>
        <time>2011-11-15T12:33:49Z</time>
      </trkpt>
      <trkpt lat="43.53654" lon="5.5358">
        <ele>365.92</ele>
        <time>2011-11-15T12:34:23Z</time>
      </trkpt>
      <trkpt lat="43.53652" lon="5.53582">
        <ele>365.44</ele>
        <time>2011-11-15T12:34:39Z</time>
      </trkpt>
      <trkpt lat="43.53651" lon="5.53589">
        <ele>369.28</ele>
        <time>2011-11-15T12:35:00Z</time>
      </trkpt>
      <trkpt lat="43.53644" lon="5.53596">
        <ele>370.24</ele>
        <time>2011-11-15T12:35:17Z</time>
      </trkpt>
      <trkpt lat="43.53633" lon="5.53603">
        <ele>370.24</ele>
        <time>2011-11-15T12:35:34Z</time>
      </trkpt>
      <trkpt lat="43.53632" lon="5.53604">
        <ele>369.28</ele>
        <time>2011-11-15T12:35:35Z</time>
      </trkpt>
      <trkpt lat="43.53613" lon="5.53605">
        <ele>366.88</ele>
        <time>2011-11-15T12:35:54Z</time>
      </trkpt>
      <trkpt lat="43.53601" lon="5.53608">
        <ele>367.36</ele>
        <time>2011-11-15T12:36:13Z</time>
      </trkpt>
      <trkpt lat="43.53595" lon="5.53611">
        <ele>371.21</ele>
        <time>2011-11-15T12:36:31Z</time>
      </trkpt>
      <trkpt lat="43.53586" lon="5.53619">
        <ele>372.65</ele>
        <time>2011-11-15T12:36:51Z</time>
      </trkpt>
      <trkpt lat="43.53579" lon="5.53635">
        <ele>372.17</ele>
        <time>2011-11-15T12:37:08Z</time>
      </trkpt>
      <trkpt lat="43.53568" lon="5.53643">
        <ele>370.73</ele>
        <time>2011-11-15T12:37:22Z</time>
      </trkpt>
      <trkpt lat="43.53558" lon="5.53663">
        <ele>368.8</ele>
        <time>2011-11-15T12:37:42Z</time>
      </trkpt>
      <trkpt lat="43.53546" lon="5.53679">
        <ele>368.8</ele>
        <time>2011-11-15T12:38:02Z</time>
      </trkpt>
      <trkpt lat="43.53535" lon="5.53702">
        <ele>367.84</ele>
        <time>2011-11-15T12:38:22Z</time>
      </trkpt>
      <trkpt lat="43.53526" lon="5.53718">
        <ele>367.84</ele>
        <time>2011-11-15T12:38:36Z</time>
      </trkpt>
      <trkpt lat="43.53523" lon="5.53723">
        <ele>367.36</ele>
        <time>2011-11-15T12:38:40Z</time>
      </trkpt>
      <trkpt lat="43.53509" lon="5.53752">
        <ele>368.32</ele>
        <time>2011-11-15T12:39:03Z</time>
      </trkpt>
      <trkpt lat="43.53499" lon="5.53787">
        <ele>372.17</ele>
        <time>2011-11-15T12:39:26Z</time>
      </trkpt>
      <trkpt lat="43.53498" lon="5.53795">
        <ele>372.65</ele>
        <time>2011-11-15T12:39:31Z</time>
      </trkpt>
      <trkpt lat="43.53495" lon="5.53829">
        <ele>371.21</ele>
        <time>2011-11-15T12:39:54Z</time>
      </trkpt>
      <trkpt lat="43.53494" lon="5.53867">
        <ele>371.21</ele>
        <time>2011-11-15T12:40:20Z</time>
      </trkpt>
      <trkpt lat="43.53494" lon="5.53895">
        <ele>371.69</ele>
        <time>2011-11-15T12:40:39Z</time>
      </trkpt>
      <trkpt lat="43.53494" lon="5.5392">
        <ele>372.65</ele>
        <time>2011-11-15T12:40:58Z</time>
      </trkpt>
      <trkpt lat="43.53493" lon="5.5394">
        <ele>373.13</ele>
        <time>2011-11-15T12:41:15Z</time>
      </trkpt>
      <trkpt lat="43.53489" lon="5.53956">
        <ele>376.49</ele>
        <time>2011-11-15T12:41:32Z</time>
      </trkpt>
      <trkpt lat="43.53486" lon="5.53964">
        <ele>377.94</ele>
        <time>2011-11-15T12:41:40Z</time>
      </trkpt>
      <trkpt lat="43.53469" lon="5.5398">
        <ele>377.94</ele>
        <time>2011-11-15T12:42:00Z</time>
      </trkpt>
      <trkpt lat="43.53461" lon="5.53996">
        <ele>381.78</ele>
        <time>2011-11-15T12:42:17Z</time>
      </trkpt>
      <trkpt lat="43.53451" lon="5.54006">
        <ele>381.3</ele>
        <time>2011-11-15T12:42:28Z</time>
      </trkpt>
      <trkpt lat="43.53448" lon="5.54031">
        <ele>381.78</ele>
        <time>2011-11-15T12:42:45Z</time>
      </trkpt>
      <trkpt lat="43.53439" lon="5.54051">
        <ele>380.82</ele>
        <time>2011-11-15T12:43:00Z</time>
      </trkpt>
      <trkpt lat="43.53425" lon="5.54071">
        <ele>380.34</ele>
        <time>2011-11-15T12:43:18Z</time>
      </trkpt>
      <trkpt lat="43.53404" lon="5.54081">
        <ele>377.45</ele>
        <time>2011-11-15T12:43:37Z</time>
      </trkpt>
      <trkpt lat="43.53376" lon="5.54087">
        <ele>377.45</ele>
        <time>2011-11-15T12:43:59Z</time>
      </trkpt>
      <trkpt lat="43.53357" lon="5.54098">
        <ele>377.45</ele>
        <time>2011-11-15T12:44:18Z</time>
      </trkpt>
      <trkpt lat="43.5335" lon="5.54126">
        <ele>371.69</ele>
        <time>2011-11-15T12:44:38Z</time>
      </trkpt>
      <trkpt lat="43.53354" lon="5.54161">
        <ele>364.96</ele>
        <time>2011-11-15T12:45:00Z</time>
      </trkpt>
      <trkpt lat="43.5336" lon="5.54182">
        <ele>363.52</ele>
        <time>2011-11-15T12:45:15Z</time>
      </trkpt>
      <trkpt lat="43.53342" lon="5.542">
        <ele>367.84</ele>
        <time>2011-11-15T12:45:33Z</time>
      </trkpt>
      <trkpt lat="43.53335" lon="5.54205">
        <ele>365.44</ele>
        <time>2011-11-15T12:45:39Z</time>
      </trkpt>
      <trkpt lat="43.53315" lon="5.5421">
        <ele>359.19</ele>
        <time>2011-11-15T12:45:58Z</time>
      </trkpt>
      <trkpt lat="43.53309" lon="5.54211">
        <ele>358.23</ele>
        <time>2011-11-15T12:46:03Z</time>
      </trkpt>
      <trkpt lat="43.53302" lon="5.54218">
        <ele>358.71</ele>
        <time>2011-11-15T12:46:17Z</time>
      </trkpt>
      <trkpt lat="43.53286" lon="5.5423">
        <ele>357.27</ele>
        <time>2011-11-15T12:46:37Z</time>
      </trkpt>
      <trkpt lat="43.53279" lon="5.54234">
        <ele>356.79</ele>
        <time>2011-11-15T12:46:46Z</time>
      </trkpt>
      <trkpt lat="43.53266" lon="5.54238">
        <ele>355.34</ele>
        <time>2011-11-15T12:47:00Z</time>
      </trkpt>
      <trkpt lat="43.5325" lon="5.54245">
        <ele>351.98</ele>
        <time>2011-11-15T12:47:18Z</time>
      </trkpt>
      <trkpt lat="43.53237" lon="5.54246">
        <ele>347.65</ele>
        <time>2011-11-15T12:47:33Z</time>
      </trkpt>
      <trkpt lat="43.53226" lon="5.54256">
        <ele>346.69</ele>
        <time>2011-11-15T12:47:49Z</time>
      </trkpt>
      <trkpt lat="43.53214" lon="5.54273">
        <ele>346.69</ele>
        <time>2011-11-15T12:48:06Z</time>
      </trkpt>
      <trkpt lat="43.532" lon="5.54293">
        <ele>351.02</ele>
        <time>2011-11-15T12:48:23Z</time>
      </trkpt>
      <trkpt lat="43.5319" lon="5.54314">
        <ele>349.58</ele>
        <time>2011-11-15T12:48:39Z</time>
      </trkpt>
      <trkpt lat="43.5318" lon="5.5433">
        <ele>346.69</ele>
        <time>2011-11-15T12:48:55Z</time>
      </trkpt>
      <trkpt lat="43.53171" lon="5.54349">
        <ele>348.13</ele>
        <time>2011-11-15T12:49:11Z</time>
      </trkpt>
      <trkpt lat="43.53158" lon="5.54369">
        <ele>348.62</ele>
        <time>2011-11-15T12:49:29Z</time>
      </trkpt>
      <trkpt lat="43.53142" lon="5.54394">
        <ele>351.98</ele>
        <time>2011-11-15T12:49:49Z</time>
      </trkpt>
      <trkpt lat="43.53129" lon="5.54414">
        <ele>351.98</ele>
        <time>2011-11-15T12:50:06Z</time>
      </trkpt>
      <trkpt lat="43.53128" lon="5.54436">
        <ele>349.58</ele>
        <time>2011-11-15T12:50:20Z</time>
      </trkpt>
      <trkpt lat="43.53134" lon="5.5446">
        <ele>343.33</ele>
        <time>2011-11-15T12:50:37Z</time>
      </trkpt>
      <trkpt lat="43.53147" lon="5.54488">
        <ele>341.89</ele>
        <time>2011-11-15T12:50:59Z</time>
      </trkpt>
      <trkpt lat="43.5316" lon="5.54507">
        <ele>337.56</ele>
        <time>2011-11-15T12:51:17Z</time>
      </trkpt>
      <trkpt lat="43.53171" lon="5.54525">
        <ele>334.68</ele>
        <time>2011-11-15T12:51:34Z</time>
      </trkpt>
      <trkpt lat="43.53176" lon="5.5454">
        <ele>331.31</ele>
        <time>2011-11-15T12:51:48Z</time>
      </trkpt>
      <trkpt lat="43.53184" lon="5.54559">
        <ele>327.47</ele>
        <time>2011-11-15T12:52:05Z</time>
      </trkpt>
      <trkpt lat="43.53185" lon="5.54591">
        <ele>330.83</ele>
        <time>2011-11-15T12:52:26Z</time>
      </trkpt>
      <trkpt lat="43.53188" lon="5.54621">
        <ele>330.83</ele>
        <time>2011-11-15T12:52:49Z</time>
      </trkpt>
      <trkpt lat="43.53189" lon="5.5464">
        <ele>328.91</ele>
        <time>2011-11-15T12:53:07Z</time>
      </trkpt>
      <trkpt lat="43.53189" lon="5.54646">
        <ele>327.95</ele>
        <time>2011-11-15T12:53:13Z</time>
      </trkpt>
      <trkpt lat="43.53191" lon="5.54676">
        <ele>326.5</ele>
        <time>2011-11-15T12:53:34Z</time>
      </trkpt>
      <trkpt lat="43.53193" lon="5.54704">
        <ele>323.62</ele>
        <time>2011-11-15T12:53:54Z</time>
      </trkpt>
      <trkpt lat="43.53199" lon="5.54728">
        <ele>317.85</ele>
        <time>2011-11-15T12:54:12Z</time>
      </trkpt>
      <trkpt lat="43.53207" lon="5.54749">
        <ele>317.37</ele>
        <time>2011-11-15T12:54:32Z</time>
      </trkpt>
      <trkpt lat="43.5321" lon="5.5477">
        <ele>314.97</ele>
        <time>2011-11-15T12:54:54Z</time>
      </trkpt>
      <trkpt lat="43.53202" lon="5.54788">
        <ele>313.05</ele>
        <time>2011-11-15T12:55:15Z</time>
      </trkpt>
      <trkpt lat="43.5319" lon="5.54803">
        <ele>309.68</ele>
        <time>2011-11-15T12:55:35Z</time>
      </trkpt>
      <trkpt lat="43.53177" lon="5.54806">
        <ele>307.76</ele>
        <time>2011-11-15T12:55:49Z</time>
      </trkpt>
      <trkpt lat="43.53172" lon="5.54806">
        <ele>307.28</ele>
        <time>2011-11-15T12:55:54Z</time>
      </trkpt>
      <trkpt lat="43.5316" lon="5.54801">
        <ele>304.39</ele>
        <time>2011-11-15T12:56:09Z</time>
      </trkpt>
      <trkpt lat="43.53147" lon="5.54805">
        <ele>301.99</ele>
        <time>2011-11-15T12:56:25Z</time>
      </trkpt>
      <trkpt lat="43.53137" lon="5.54809">
        <ele>298.15</ele>
        <time>2011-11-15T12:56:40Z</time>
      </trkpt>
      <trkpt lat="43.5312" lon="5.54815">
        <ele>296.22</ele>
        <time>2011-11-15T12:57:00Z</time>
      </trkpt>
      <trkpt lat="43.53104" lon="5.54819">
        <ele>291.9</ele>
        <time>2011-11-15T12:57:20Z</time>
      </trkpt>
      <trkpt lat="43.53088" lon="5.54823">
        <ele>289.49</ele>
        <time>2011-11-15T12:57:38Z</time>
      </trkpt>
      <trkpt lat="43.53086" lon="5.54823">
        <ele>289.49</ele>
        <time>2011-11-15T12:57:40Z</time>
      </trkpt>
      <trkpt lat="43.53071" lon="5.54823">
        <ele>287.09</ele>
        <time>2011-11-15T12:57:56Z</time>
      </trkpt>
      <trkpt lat="43.53064" lon="5.54834">
        <ele>283.73</ele>
        <time>2011-11-15T12:58:10Z</time>
      </trkpt>
      <trkpt lat="43.53055" lon="5.54849">
        <ele>280.84</ele>
        <time>2011-11-15T12:58:27Z</time>
      </trkpt>
      <trkpt lat="43.53047" lon="5.5486">
        <ele>282.28</ele>
        <time>2011-11-15T12:58:38Z</time>
      </trkpt>
      <trkpt lat="43.53032" lon="5.54874">
        <ele>279.4</ele>
        <time>2011-11-15T12:58:55Z</time>
      </trkpt>
      <trkpt lat="43.53022" lon="5.54884">
        <ele>275.56</ele>
        <time>2011-11-15T12:59:10Z</time>
      </trkpt>
      <trkpt lat="43.53017" lon="5.54888">
        <ele>274.11</ele>
        <time>2011-11-15T12:59:15Z</time>
      </trkpt>
      <trkpt lat="43.53015" lon="5.54906">
        <ele>276.04</ele>
        <time>2011-11-15T12:59:33Z</time>
      </trkpt>
      <trkpt lat="43.53011" lon="5.54921">
        <ele>274.59</ele>
        <time>2011-11-15T12:59:50Z</time>
      </trkpt>
      <trkpt lat="43.53005" lon="5.54935">
        <ele>274.11</ele>
        <time>2011-11-15T13:00:05Z</time>
      </trkpt>
      <trkpt lat="43.52992" lon="5.54946">
        <ele>272.67</ele>
        <time>2011-11-15T13:00:22Z</time>
      </trkpt>
      <trkpt lat="43.52991" lon="5.54946">
        <ele>272.67</ele>
        <time>2011-11-15T13:00:23Z</time>
      </trkpt>
      <trkpt lat="43.52979" lon="5.54944">
        <ele>272.67</ele>
        <time>2011-11-15T13:00:34Z</time>
      </trkpt>
      <trkpt lat="43.5296" lon="5.54947">
        <ele>269.31</ele>
        <time>2011-11-15T13:00:52Z</time>
      </trkpt>
      <trkpt lat="43.52946" lon="5.54958">
        <ele>266.9</ele>
        <time>2011-11-15T13:01:09Z</time>
      </trkpt>
      <trkpt lat="43.52944" lon="5.54963">
        <ele>266.42</ele>
        <time>2011-11-15T13:01:14Z</time>
      </trkpt>
      <trkpt lat="43.52934" lon="5.54963">
        <ele>268.35</ele>
        <time>2011-11-15T13:01:31Z</time>
      </trkpt>
      <trkpt lat="43.52929" lon="5.5496">
        <ele>268.35</ele>
        <time>2011-11-15T13:01:46Z</time>
      </trkpt>
      <trkpt lat="43.52926" lon="5.54955">
        <ele>271.23</ele>
        <time>2011-11-15T13:01:58Z</time>
      </trkpt>
      <trkpt lat="43.52924" lon="5.54949">
        <ele>270.27</ele>
        <time>2011-11-15T13:02:02Z</time>
      </trkpt>
      <trkpt lat="43.52912" lon="5.54942">
        <ele>269.79</ele>
        <time>2011-11-15T13:02:18Z</time>
      </trkpt>
      <trkpt lat="43.52905" lon="5.5493">
        <ele>268.35</ele>
        <time>2011-11-15T13:02:30Z</time>
      </trkpt>
      <trkpt lat="43.52896" lon="5.54928">
        <ele>266.9</ele>
        <time>2011-11-15T13:02:42Z</time>
      </trkpt>
      <trkpt lat="43.52888" lon="5.54925">
        <ele>269.79</ele>
        <time>2011-11-15T13:02:54Z</time>
      </trkpt>
      <trkpt lat="43.52884" lon="5.54914">
        <ele>269.31</ele>
        <time>2011-11-15T13:03:01Z</time>
      </trkpt>
      <trkpt lat="43.52871" lon="5.549">
        <ele>269.31</ele>
        <time>2011-11-15T13:03:16Z</time>
      </trkpt>
      <trkpt lat="43.52856" lon="5.54884">
        <ele>267.38</ele>
        <time>2011-11-15T13:03:34Z</time>
      </trkpt>
      <trkpt lat="43.52848" lon="5.54875">
        <ele>266.9</ele>
        <time>2011-11-15T13:03:45Z</time>
      </trkpt>
      <trkpt lat="43.52845" lon="5.54872">
        <ele>267.38</ele>
        <time>2011-11-15T13:03:48Z</time>
      </trkpt>
      <trkpt lat="43.52842" lon="5.54867">
        <ele>266.9</ele>
        <time>2011-11-15T13:03:53Z</time>
      </trkpt>
      <trkpt lat="43.52827" lon="5.54846">
        <ele>265.94</ele>
        <time>2011-11-15T13:04:13Z</time>
      </trkpt>
      <trkpt lat="43.52823" lon="5.54843">
        <ele>265.94</ele>
        <time>2011-11-15T13:04:18Z</time>
      </trkpt>
      <trkpt lat="43.52812" lon="5.54822">
        <ele>267.86</ele>
        <time>2011-11-15T13:04:39Z</time>
      </trkpt>
      <trkpt lat="43.52805" lon="5.54818">
        <ele>265.94</ele>
        <time>2011-11-15T13:04:55Z</time>
      </trkpt>
      <trkpt lat="43.528" lon="5.54814">
        <ele>267.86</ele>
        <time>2011-11-15T13:05:10Z</time>
      </trkpt>
      <trkpt lat="43.52793" lon="5.54811">
        <ele>269.79</ele>
        <time>2011-11-15T13:05:26Z</time>
      </trkpt>
      <trkpt lat="43.52787" lon="5.54811">
        <ele>270.75</ele>
        <time>2011-11-15T13:05:42Z</time>
      </trkpt>
      <trkpt lat="43.52785" lon="5.5481">
        <ele>267.86</ele>
        <time>2011-11-15T13:06:02Z</time>
      </trkpt>
      <trkpt lat="43.52781" lon="5.5481">
        <ele>267.38</ele>
        <time>2011-11-15T13:06:24Z</time>
      </trkpt>
      <trkpt lat="43.52769" lon="5.54813">
        <ele>272.19</ele>
        <time>2011-11-15T13:06:50Z</time>
      </trkpt>
      <trkpt lat="43.52763" lon="5.54814">
        <ele>271.23</ele>
        <time>2011-11-15T13:06:58Z</time>
      </trkpt>
      <trkpt lat="43.5276" lon="5.54813">
        <ele>270.75</ele>
        <time>2011-11-15T13:07:01Z</time>
      </trkpt>
      <trkpt lat="43.52756" lon="5.54814">
        <ele>267.38</ele>
        <time>2011-11-15T13:07:09Z</time>
      </trkpt>
      <trkpt lat="43.52743" lon="5.54813">
        <ele>274.11</ele>
        <time>2011-11-15T13:07:24Z</time>
      </trkpt>
      <trkpt lat="43.52742" lon="5.5481">
        <ele>273.15</ele>
        <time>2011-11-15T13:07:27Z</time>
      </trkpt>
      <trkpt lat="43.52739" lon="5.54789">
        <ele>274.11</ele>
        <time>2011-11-15T13:07:41Z</time>
      </trkpt>
      <trkpt lat="43.52736" lon="5.54786">
        <ele>272.67</ele>
        <time>2011-11-15T13:07:45Z</time>
      </trkpt>
      <trkpt lat="43.52732" lon="5.5478">
        <ele>273.15</ele>
        <time>2011-11-15T13:07:51Z</time>
      </trkpt>
      <trkpt lat="43.5273" lon="5.54779">
        <ele>272.67</ele>
        <time>2011-11-15T13:07:53Z</time>
      </trkpt>
      <trkpt lat="43.52713" lon="5.54771">
        <ele>270.27</ele>
        <time>2011-11-15T13:08:08Z</time>
      </trkpt>
      <trkpt lat="43.52694" lon="5.54749">
        <ele>271.23</ele>
        <time>2011-11-15T13:08:29Z</time>
      </trkpt>
      <trkpt lat="43.5268" lon="5.54734">
        <ele>271.71</ele>
        <time>2011-11-15T13:08:47Z</time>
      </trkpt>
      <trkpt lat="43.52669" lon="5.54714">
        <ele>269.79</ele>
        <time>2011-11-15T13:09:03Z</time>
      </trkpt>
      <trkpt lat="43.52658" lon="5.54692">
        <ele>267.38</ele>
        <time>2011-11-15T13:09:20Z</time>
      </trkpt>
      <trkpt lat="43.52645" lon="5.54667">
        <ele>266.9</ele>
        <time>2011-11-15T13:09:40Z</time>
      </trkpt>
      <trkpt lat="43.5263" lon="5.54641">
        <ele>267.86</ele>
        <time>2011-11-15T13:10:01Z</time>
      </trkpt>
      <trkpt lat="43.52619" lon="5.54617">
        <ele>265.46</ele>
        <time>2011-11-15T13:10:18Z</time>
      </trkpt>
      <trkpt lat="43.52607" lon="5.54597">
        <ele>265.46</ele>
        <time>2011-11-15T13:10:35Z</time>
      </trkpt>
      <trkpt lat="43.52601" lon="5.54588">
        <ele>264.5</ele>
        <time>2011-11-15T13:10:43Z</time>
      </trkpt>
      <trkpt lat="43.52587" lon="5.54559">
        <ele>264.5</ele>
        <time>2011-11-15T13:11:05Z</time>
      </trkpt>
      <trkpt lat="43.52573" lon="5.54537">
        <ele>265.46</ele>
        <time>2011-11-15T13:11:25Z</time>
      </trkpt>
      <trkpt lat="43.52568" lon="5.54522">
        <ele>265.46</ele>
        <time>2011-11-15T13:11:41Z</time>
      </trkpt>
      <trkpt lat="43.52566" lon="5.54518">
        <ele>268.83</ele>
        <time>2011-11-15T13:11:57Z</time>
      </trkpt>
      <trkpt lat="43.52567" lon="5.54519">
        <ele>269.79</ele>
        <time>2011-11-15T13:12:12Z</time>
      </trkpt>
      <trkpt lat="43.52558" lon="5.54521">
        <ele>268.35</ele>
        <time>2011-11-15T13:12:29Z</time>
      </trkpt>
      <trkpt lat="43.52546" lon="5.54508">
        <ele>266.9</ele>
        <time>2011-11-15T13:12:47Z</time>
      </trkpt>
      <trkpt lat="43.52538" lon="5.54495">
        <ele>264.02</ele>
        <time>2011-11-15T13:13:00Z</time>
      </trkpt>
      <trkpt lat="43.52524" lon="5.54476">
        <ele>264.5</ele>
        <time>2011-11-15T13:13:18Z</time>
      </trkpt>
      <trkpt lat="43.52514" lon="5.54455">
        <ele>268.35</ele>
        <time>2011-11-15T13:13:35Z</time>
      </trkpt>
      <trkpt lat="43.52507" lon="5.54435">
        <ele>270.27</ele>
        <time>2011-11-15T13:13:52Z</time>
      </trkpt>
      <trkpt lat="43.52507" lon="5.54434">
        <ele>270.27</ele>
        <time>2011-11-15T13:13:53Z</time>
      </trkpt>
      <trkpt lat="43.52507" lon="5.54426">
        <ele>270.27</ele>
        <time>2011-11-15T13:13:59Z</time>
      </trkpt>
      <trkpt lat="43.5251" lon="5.54411">
        <ele>267.38</ele>
        <time>2011-11-15T13:14:11Z</time>
      </trkpt>
      <trkpt lat="43.52507" lon="5.5439">
        <ele>266.9</ele>
        <time>2011-11-15T13:14:27Z</time>
      </trkpt>
      <trkpt lat="43.52505" lon="5.54372">
        <ele>265.46</ele>
        <time>2011-11-15T13:14:41Z</time>
      </trkpt>
      <trkpt lat="43.52503" lon="5.54361">
        <ele>266.42</ele>
        <time>2011-11-15T13:14:49Z</time>
      </trkpt>
      <trkpt lat="43.52498" lon="5.54339">
        <ele>268.35</ele>
        <time>2011-11-15T13:15:06Z</time>
      </trkpt>
      <trkpt lat="43.52492" lon="5.54321">
        <ele>267.38</ele>
        <time>2011-11-15T13:15:21Z</time>
      </trkpt>
      <trkpt lat="43.52485" lon="5.54303">
        <ele>272.19</ele>
        <time>2011-11-15T13:15:36Z</time>
      </trkpt>
      <trkpt lat="43.52476" lon="5.54284">
        <ele>276.52</ele>
        <time>2011-11-15T13:15:51Z</time>
      </trkpt>
      <trkpt lat="43.52468" lon="5.5426">
        <ele>276.52</ele>
        <time>2011-11-15T13:16:08Z</time>
      </trkpt>
      <trkpt lat="43.52454" lon="5.54242">
        <ele>276.52</ele>
        <time>2011-11-15T13:16:27Z</time>
      </trkpt>
      <trkpt lat="43.52441" lon="5.54226">
        <ele>277.48</ele>
        <time>2011-11-15T13:16:47Z</time>
      </trkpt>
      <trkpt lat="43.52435" lon="5.54205">
        <ele>277.48</ele>
        <time>2011-11-15T13:17:03Z</time>
      </trkpt>
      <trkpt lat="43.5243" lon="5.54179">
        <ele>278.44</ele>
        <time>2011-11-15T13:17:23Z</time>
      </trkpt>
      <trkpt lat="43.52424" lon="5.54152">
        <ele>281.32</ele>
        <time>2011-11-15T13:17:43Z</time>
      </trkpt>
      <trkpt lat="43.52419" lon="5.54126">
        <ele>282.77</ele>
        <time>2011-11-15T13:17:59Z</time>
      </trkpt>
      <trkpt lat="43.52418" lon="5.54104">
        <ele>283.25</ele>
        <time>2011-11-15T13:18:18Z</time>
      </trkpt>
      <trkpt lat="43.52416" lon="5.54098">
        <ele>286.13</ele>
        <time>2011-11-15T13:18:36Z</time>
      </trkpt>
      <trkpt lat="43.52418" lon="5.54096">
        <ele>290.94</ele>
        <time>2011-11-15T13:19:10Z</time>
      </trkpt>
      <trkpt lat="43.52418" lon="5.54098">
        <ele>288.53</ele>
        <time>2011-11-15T13:19:36Z</time>
      </trkpt>
      <trkpt lat="43.52415" lon="5.54096">
        <ele>286.13</ele>
        <time>2011-11-15T13:20:04Z</time>
      </trkpt>
      <trkpt lat="43.52415" lon="5.54096">
        <ele>285.65</ele>
        <time>2011-11-15T13:20:25Z</time>
      </trkpt>
      <trkpt lat="43.52417" lon="5.54093">
        <ele>284.21</ele>
        <time>2011-11-15T13:20:43Z</time>
      </trkpt>
      <trkpt lat="43.52416" lon="5.54082">
        <ele>285.65</ele>
        <time>2011-11-15T13:20:58Z</time>
      </trkpt>
      <trkpt lat="43.52415" lon="5.54076">
        <ele>286.13</ele>
        <time>2011-11-15T13:21:03Z</time>
      </trkpt>
      <trkpt lat="43.52414" lon="5.54051">
        <ele>288.05</ele>
        <time>2011-11-15T13:21:22Z</time>
      </trkpt>
      <trkpt lat="43.52412" lon="5.54037">
        <ele>290.94</ele>
        <time>2011-11-15T13:21:33Z</time>
      </trkpt>
      <trkpt lat="43.52413" lon="5.54023">
        <ele>290.94</ele>
        <time>2011-11-15T13:21:44Z</time>
      </trkpt>
      <trkpt lat="43.52412" lon="5.54004">
        <ele>290.94</ele>
        <time>2011-11-15T13:22:00Z</time>
      </trkpt>
      <trkpt lat="43.52408" lon="5.5398">
        <ele>291.42</ele>
        <time>2011-11-15T13:22:18Z</time>
      </trkpt>
      <trkpt lat="43.52407" lon="5.53953">
        <ele>291.42</ele>
        <time>2011-11-15T13:22:37Z</time>
      </trkpt>
      <trkpt lat="43.52407" lon="5.53949">
        <ele>291.9</ele>
        <time>2011-11-15T13:22:40Z</time>
      </trkpt>
      <trkpt lat="43.52407" lon="5.53942">
        <ele>290.94</ele>
        <time>2011-11-15T13:22:45Z</time>
      </trkpt>
      <trkpt lat="43.52405" lon="5.53923">
        <ele>290.94</ele>
        <time>2011-11-15T13:22:58Z</time>
      </trkpt>
      <trkpt lat="43.52409" lon="5.53893">
        <ele>290.94</ele>
        <time>2011-11-15T13:23:17Z</time>
      </trkpt>
      <trkpt lat="43.52415" lon="5.53866">
        <ele>295.26</ele>
        <time>2011-11-15T13:23:36Z</time>
      </trkpt>
      <trkpt lat="43.52417" lon="5.53853">
        <ele>296.22</ele>
        <time>2011-11-15T13:23:46Z</time>
      </trkpt>
      <trkpt lat="43.5242" lon="5.53845">
        <ele>298.15</ele>
        <time>2011-11-15T13:23:53Z</time>
      </trkpt>
      <trkpt lat="43.52428" lon="5.53827">
        <ele>301.03</ele>
        <time>2011-11-15T13:24:09Z</time>
      </trkpt>
      <trkpt lat="43.52428" lon="5.53818">
        <ele>301.99</ele>
        <time>2011-11-15T13:24:16Z</time>
      </trkpt>
      <trkpt lat="43.52424" lon="5.53794">
        <ele>301.03</ele>
        <time>2011-11-15T13:24:34Z</time>
      </trkpt>
      <trkpt lat="43.52414" lon="5.5377">
        <ele>298.63</ele>
        <time>2011-11-15T13:24:53Z</time>
      </trkpt>
      <trkpt lat="43.52408" lon="5.53754">
        <ele>301.03</ele>
        <time>2011-11-15T13:25:10Z</time>
      </trkpt>
      <trkpt lat="43.52402" lon="5.53738">
        <ele>300.07</ele>
        <time>2011-11-15T13:25:24Z</time>
      </trkpt>
      <trkpt lat="43.52404" lon="5.53713">
        <ele>295.74</ele>
        <time>2011-11-15T13:25:42Z</time>
      </trkpt>
      <trkpt lat="43.52406" lon="5.53707">
        <ele>295.74</ele>
        <time>2011-11-15T13:25:46Z</time>
      </trkpt>
      <trkpt lat="43.52407" lon="5.53678">
        <ele>295.74</ele>
        <time>2011-11-15T13:26:07Z</time>
      </trkpt>
      <trkpt lat="43.5241" lon="5.53645">
        <ele>296.7</ele>
        <time>2011-11-15T13:26:29Z</time>
      </trkpt>
      <trkpt lat="43.52414" lon="5.53622">
        <ele>294.3</ele>
        <time>2011-11-15T13:26:48Z</time>
      </trkpt>
      <trkpt lat="43.52415" lon="5.53596">
        <ele>292.86</ele>
        <time>2011-11-15T13:27:07Z</time>
      </trkpt>
      <trkpt lat="43.52418" lon="5.53569">
        <ele>291.42</ele>
        <time>2011-11-15T13:27:26Z</time>
      </trkpt>
      <trkpt lat="43.52419" lon="5.53544">
        <ele>288.53</ele>
        <time>2011-11-15T13:27:46Z</time>
      </trkpt>
      <trkpt lat="43.52422" lon="5.53539">
        <ele>287.09</ele>
        <time>2011-11-15T13:27:51Z</time>
      </trkpt>
      <trkpt lat="43.52429" lon="5.53516">
        <ele>288.05</ele>
        <time>2011-11-15T13:28:08Z</time>
      </trkpt>
      <trkpt lat="43.52434" lon="5.53485">
        <ele>287.09</ele>
        <time>2011-11-15T13:28:28Z</time>
      </trkpt>
      <trkpt lat="43.52438" lon="5.53463">
        <ele>284.21</ele>
        <time>2011-11-15T13:28:45Z</time>
      </trkpt>
      <trkpt lat="43.52439" lon="5.53433">
        <ele>284.21</ele>
        <time>2011-11-15T13:29:04Z</time>
      </trkpt>
      <trkpt lat="43.52441" lon="5.53403">
        <ele>283.25</ele>
        <time>2011-11-15T13:29:24Z</time>
      </trkpt>
      <trkpt lat="43.52442" lon="5.53393">
        <ele>283.73</ele>
        <time>2011-11-15T13:29:31Z</time>
      </trkpt>
      <trkpt lat="43.52445" lon="5.53374">
        <ele>281.8</ele>
        <time>2011-11-15T13:29:44Z</time>
      </trkpt>
      <trkpt lat="43.52448" lon="5.53368">
        <ele>280.84</ele>
        <time>2011-11-15T13:29:49Z</time>
      </trkpt>
      <trkpt lat="43.52452" lon="5.53341">
        <ele>280.84</ele>
        <time>2011-11-15T13:30:07Z</time>
      </trkpt>
      <trkpt lat="43.52456" lon="5.53314">
        <ele>278.44</ele>
        <time>2011-11-15T13:30:26Z</time>
      </trkpt>
      <trkpt lat="43.52457" lon="5.53276">
        <ele>277.48</ele>
        <time>2011-11-15T13:30:50Z</time>
      </trkpt>
      <trkpt lat="43.52459" lon="5.53259">
        <ele>276.04</ele>
        <time>2011-11-15T13:31:03Z</time>
      </trkpt>
      <trkpt lat="43.5246" lon="5.53243">
        <ele>276.04</ele>
        <time>2011-11-15T13:31:17Z</time>
      </trkpt>
      <trkpt lat="43.52461" lon="5.53243">
        <ele>276.04</ele>
        <time>2011-11-15T13:31:18Z</time>
      </trkpt>
      <trkpt lat="43.52465" lon="5.53251">
        <ele>278.92</ele>
        <time>2011-11-15T13:31:37Z</time>
      </trkpt>
      <trkpt lat="43.52461" lon="5.53245">
        <ele>279.88</ele>
        <time>2011-11-15T13:31:55Z</time>
      </trkpt>
      <trkpt lat="43.52453" lon="5.53238">
        <ele>277</ele>
        <time>2011-11-15T13:32:12Z</time>
      </trkpt>
      <trkpt lat="43.52454" lon="5.53238">
        <ele>274.59</ele>
        <time>2011-11-15T13:32:28Z</time>
      </trkpt>
      <trkpt lat="43.52451" lon="5.53231">
        <ele>272.67</ele>
        <time>2011-11-15T13:32:43Z</time>
      </trkpt>
      <trkpt lat="43.52432" lon="5.53223">
        <ele>276.52</ele>
        <time>2011-11-15T13:33:02Z</time>
      </trkpt>
      <trkpt lat="43.52414" lon="5.5322">
        <ele>274.59</ele>
        <time>2011-11-15T13:33:20Z</time>
      </trkpt>
      <trkpt lat="43.52398" lon="5.53212">
        <ele>273.15</ele>
        <time>2011-11-15T13:33:39Z</time>
      </trkpt>
      <trkpt lat="43.52388" lon="5.532">
        <ele>272.67</ele>
        <time>2011-11-15T13:33:54Z</time>
      </trkpt>
      <trkpt lat="43.52382" lon="5.5318">
        <ele>272.67</ele>
        <time>2011-11-15T13:34:14Z</time>
      </trkpt>
      <trkpt lat="43.52379" lon="5.53166">
        <ele>269.79</ele>
        <time>2011-11-15T13:34:32Z</time>
      </trkpt>
      <trkpt lat="43.52389" lon="5.53158">
        <ele>268.83</ele>
        <time>2011-11-15T13:34:48Z</time>
      </trkpt>
      <trkpt lat="43.52403" lon="5.53136">
        <ele>265.46</ele>
        <time>2011-11-15T13:35:10Z</time>
      </trkpt>
      <trkpt lat="43.52405" lon="5.5313">
        <ele>264.98</ele>
        <time>2011-11-15T13:35:15Z</time>
      </trkpt>
      <trkpt lat="43.52405" lon="5.53094">
        <ele>263.54</ele>
        <time>2011-11-15T13:35:39Z</time>
      </trkpt>
      <trkpt lat="43.52404" lon="5.53068">
        <ele>264.5</ele>
        <time>2011-11-15T13:35:56Z</time>
      </trkpt>
      <trkpt lat="43.52404" lon="5.53048">
        <ele>264.5</ele>
        <time>2011-11-15T13:36:08Z</time>
      </trkpt>
      <trkpt lat="43.52405" lon="5.53034">
        <ele>260.17</ele>
        <time>2011-11-15T13:36:22Z</time>
      </trkpt>
      <trkpt lat="43.52407" lon="5.53014">
        <ele>261.14</ele>
        <time>2011-11-15T13:36:37Z</time>
      </trkpt>
      <trkpt lat="43.5241" lon="5.52989">
        <ele>261.14</ele>
        <time>2011-11-15T13:36:55Z</time>
      </trkpt>
      <trkpt lat="43.52413" lon="5.52968">
        <ele>259.21</ele>
        <time>2011-11-15T13:37:10Z</time>
      </trkpt>
      <trkpt lat="43.52416" lon="5.5295">
        <ele>256.33</ele>
        <time>2011-11-15T13:37:22Z</time>
      </trkpt>
      <trkpt lat="43.52425" lon="5.52928">
        <ele>254.89</ele>
        <time>2011-11-15T13:37:38Z</time>
      </trkpt>
      <trkpt lat="43.5243" lon="5.52912">
        <ele>252.48</ele>
        <time>2011-11-15T13:37:48Z</time>
      </trkpt>
      <trkpt lat="43.52434" lon="5.52903">
        <ele>252.96</ele>
        <time>2011-11-15T13:37:54Z</time>
      </trkpt>
      <trkpt lat="43.52438" lon="5.52885">
        <ele>251.04</ele>
        <time>2011-11-15T13:38:08Z</time>
      </trkpt>
      <trkpt lat="43.52441" lon="5.52875">
        <ele>250.08</ele>
        <time>2011-11-15T13:38:14Z</time>
      </trkpt>
      <trkpt lat="43.52446" lon="5.52855">
        <ele>250.56</ele>
        <time>2011-11-15T13:38:29Z</time>
      </trkpt>
      <trkpt lat="43.52447" lon="5.52832">
        <ele>251.04</ele>
        <time>2011-11-15T13:38:45Z</time>
      </trkpt>
      <trkpt lat="43.52444" lon="5.52802">
        <ele>260.65</ele>
        <time>2011-11-15T13:39:04Z</time>
      </trkpt>
      <trkpt lat="43.52443" lon="5.52785">
        <ele>261.14</ele>
        <time>2011-11-15T13:39:17Z</time>
      </trkpt>
      <trkpt lat="43.52446" lon="5.5276">
        <ele>263.54</ele>
        <time>2011-11-15T13:39:36Z</time>
      </trkpt>
      <trkpt lat="43.52443" lon="5.52741">
        <ele>266.42</ele>
        <time>2011-11-15T13:39:52Z</time>
      </trkpt>
      <trkpt lat="43.52443" lon="5.52721">
        <ele>266.9</ele>
        <time>2011-11-15T13:40:09Z</time>
      </trkpt>
      <trkpt lat="43.52447" lon="5.52701">
        <ele>264.98</ele>
        <time>2011-11-15T13:40:25Z</time>
      </trkpt>
      <trkpt lat="43.52447" lon="5.527">
        <ele>264.02</ele>
        <time>2011-11-15T13:40:26Z</time>
      </trkpt>
      <trkpt lat="43.5245" lon="5.5269">
        <ele>262.58</ele>
        <time>2011-11-15T13:40:33Z</time>
      </trkpt>
      <trkpt lat="43.52451" lon="5.52687">
        <ele>263.54</ele>
        <time>2011-11-15T13:40:35Z</time>
      </trkpt>
      <trkpt lat="43.52456" lon="5.52666">
        <ele>268.83</ele>
        <time>2011-11-15T13:40:48Z</time>
      </trkpt>
      <trkpt lat="43.52467" lon="5.52642">
        <ele>269.31</ele>
        <time>2011-11-15T13:41:07Z</time>
      </trkpt>
      <trkpt lat="43.52483" lon="5.52615">
        <ele>270.27</ele>
        <time>2011-11-15T13:41:26Z</time>
      </trkpt>
      <trkpt lat="43.52498" lon="5.52587">
        <ele>269.79</ele>
        <time>2011-11-15T13:41:46Z</time>
      </trkpt>
      <trkpt lat="43.52507" lon="5.52553">
        <ele>271.23</ele>
        <time>2011-11-15T13:42:07Z</time>
      </trkpt>
      <trkpt lat="43.52518" lon="5.52522">
        <ele>268.83</ele>
        <time>2011-11-15T13:42:26Z</time>
      </trkpt>
      <trkpt lat="43.52526" lon="5.52495">
        <ele>270.75</ele>
        <time>2011-11-15T13:42:43Z</time>
      </trkpt>
      <trkpt lat="43.52529" lon="5.52482">
        <ele>273.15</ele>
        <time>2011-11-15T13:42:52Z</time>
      </trkpt>
      <trkpt lat="43.52529" lon="5.52479">
        <ele>274.11</ele>
        <time>2011-11-15T13:42:54Z</time>
      </trkpt>
      <trkpt lat="43.52533" lon="5.52467">
        <ele>275.07</ele>
        <time>2011-11-15T13:43:02Z</time>
      </trkpt>
      <trkpt lat="43.52537" lon="5.5245">
        <ele>277</ele>
        <time>2011-11-15T13:43:15Z</time>
      </trkpt>
      <trkpt lat="43.52546" lon="5.52427">
        <ele>272.19</ele>
        <time>2011-11-15T13:43:34Z</time>
      </trkpt>
      <trkpt lat="43.52554" lon="5.52404">
        <ele>277.96</ele>
        <time>2011-11-15T13:43:49Z</time>
      </trkpt>
      <trkpt lat="43.52561" lon="5.52393">
        <ele>276.52</ele>
        <time>2011-11-15T13:44:01Z</time>
      </trkpt>
      <trkpt lat="43.52574" lon="5.52375">
        <ele>276.04</ele>
        <time>2011-11-15T13:44:19Z</time>
      </trkpt>
      <trkpt lat="43.52588" lon="5.52359">
        <ele>274.11</ele>
        <time>2011-11-15T13:44:35Z</time>
      </trkpt>
      <trkpt lat="43.52599" lon="5.52339">
        <ele>270.27</ele>
        <time>2011-11-15T13:44:51Z</time>
      </trkpt>
      <trkpt lat="43.52603" lon="5.52309">
        <ele>272.19</ele>
        <time>2011-11-15T13:45:09Z</time>
      </trkpt>
      <trkpt lat="43.52602" lon="5.52304">
        <ele>274.59</ele>
        <time>2011-11-15T13:45:11Z</time>
      </trkpt>
      <trkpt lat="43.52599" lon="5.52277">
        <ele>277.96</ele>
        <time>2011-11-15T13:45:28Z</time>
      </trkpt>
      <trkpt lat="43.52595" lon="5.52253">
        <ele>277.48</ele>
        <time>2011-11-15T13:45:42Z</time>
      </trkpt>
      <trkpt lat="43.52588" lon="5.52233">
        <ele>277.96</ele>
        <time>2011-11-15T13:45:55Z</time>
      </trkpt>
      <trkpt lat="43.5258" lon="5.52217">
        <ele>278.44</ele>
        <time>2011-11-15T13:46:11Z</time>
      </trkpt>
      <trkpt lat="43.52579" lon="5.52214">
        <ele>283.73</ele>
        <time>2011-11-15T13:46:26Z</time>
      </trkpt>
      <trkpt lat="43.52578" lon="5.52216">
        <ele>286.13</ele>
        <time>2011-11-15T13:46:43Z</time>
      </trkpt>
      <trkpt lat="43.52573" lon="5.52225">
        <ele>284.21</ele>
        <time>2011-11-15T13:47:05Z</time>
      </trkpt>
      <trkpt lat="43.52564" lon="5.52239">
        <ele>282.77</ele>
        <time>2011-11-15T13:47:24Z</time>
      </trkpt>
      <trkpt lat="43.5256" lon="5.52244">
        <ele>282.28</ele>
        <time>2011-11-15T13:47:32Z</time>
      </trkpt>
      <trkpt lat="43.52556" lon="5.52251">
        <ele>283.73</ele>
        <time>2011-11-15T13:47:39Z</time>
      </trkpt>
      <trkpt lat="43.52546" lon="5.52273">
        <ele>284.21</ele>
        <time>2011-11-15T13:47:59Z</time>
      </trkpt>
      <trkpt lat="43.52533" lon="5.52297">
        <ele>285.17</ele>
        <time>2011-11-15T13:48:19Z</time>
      </trkpt>
      <trkpt lat="43.52517" lon="5.52315">
        <ele>289.01</ele>
        <time>2011-11-15T13:48:37Z</time>
      </trkpt>
      <trkpt lat="43.52505" lon="5.52328">
        <ele>289.01</ele>
        <time>2011-11-15T13:48:52Z</time>
      </trkpt>
      <trkpt lat="43.52494" lon="5.52338">
        <ele>284.69</ele>
        <time>2011-11-15T13:49:06Z</time>
      </trkpt>
      <trkpt lat="43.52479" lon="5.52354">
        <ele>285.17</ele>
        <time>2011-11-15T13:49:24Z</time>
      </trkpt>
      <trkpt lat="43.52458" lon="5.52362">
        <ele>289.01</ele>
        <time>2011-11-15T13:49:41Z</time>
      </trkpt>
      <trkpt lat="43.52441" lon="5.52359">
        <ele>289.49</ele>
        <time>2011-11-15T13:49:58Z</time>
      </trkpt>
      <trkpt lat="43.52437" lon="5.52357">
        <ele>289.49</ele>
        <time>2011-11-15T13:50:04Z</time>
      </trkpt>
      <trkpt lat="43.5243" lon="5.52346">
        <ele>287.57</ele>
        <time>2011-11-15T13:50:22Z</time>
      </trkpt>
      <trkpt lat="43.52431" lon="5.52338">
        <ele>283.73</ele>
        <time>2011-11-15T13:50:37Z</time>
      </trkpt>
      <trkpt lat="43.52434" lon="5.52341">
        <ele>284.69</ele>
        <time>2011-11-15T13:51:01Z</time>
      </trkpt>
      <trkpt lat="43.52433" lon="5.52341">
        <ele>281.8</ele>
        <time>2011-11-15T13:52:44Z</time>
      </trkpt>
      <trkpt lat="43.52435" lon="5.52349">
        <ele>279.88</ele>
        <time>2011-11-15T13:53:01Z</time>
      </trkpt>
      <trkpt lat="43.52432" lon="5.5235">
        <ele>284.21</ele>
        <time>2011-11-15T13:53:19Z</time>
      </trkpt>
      <trkpt lat="43.52429" lon="5.52339">
        <ele>287.09</ele>
        <time>2011-11-15T13:53:43Z</time>
      </trkpt>
      <trkpt lat="43.52434" lon="5.52329">
        <ele>280.36</ele>
        <time>2011-11-15T13:53:59Z</time>
      </trkpt>
      <trkpt lat="43.52437" lon="5.5232">
        <ele>276.52</ele>
        <time>2011-11-15T13:54:12Z</time>
      </trkpt>
      <trkpt lat="43.52439" lon="5.52305">
        <ele>275.56</ele>
        <time>2011-11-15T13:54:26Z</time>
      </trkpt>
      <trkpt lat="43.52443" lon="5.52283">
        <ele>271.71</ele>
        <time>2011-11-15T13:54:45Z</time>
      </trkpt>
      <trkpt lat="43.52447" lon="5.52272">
        <ele>268.83</ele>
        <time>2011-11-15T13:55:01Z</time>
      </trkpt>
      <trkpt lat="43.52449" lon="5.52261">
        <ele>266.42</ele>
        <time>2011-11-15T13:55:12Z</time>
      </trkpt>
      <trkpt lat="43.52455" lon="5.52247">
        <ele>267.86</ele>
        <time>2011-11-15T13:55:29Z</time>
      </trkpt>
      <trkpt lat="43.52455" lon="5.52231">
        <ele>264.98</ele>
        <time>2011-11-15T13:55:46Z</time>
      </trkpt>
      <trkpt lat="43.52448" lon="5.52223">
        <ele>262.1</ele>
        <time>2011-11-15T13:56:00Z</time>
      </trkpt>
      <trkpt lat="43.52446" lon="5.52209">
        <ele>255.85</ele>
        <time>2011-11-15T13:56:15Z</time>
      </trkpt>
      <trkpt lat="43.52448" lon="5.52193">
        <ele>254.41</ele>
        <time>2011-11-15T13:56:31Z</time>
      </trkpt>
      <trkpt lat="43.52451" lon="5.52176">
        <ele>254.89</ele>
        <time>2011-11-15T13:56:47Z</time>
      </trkpt>
      <trkpt lat="43.52451" lon="5.52159">
        <ele>254.89</ele>
        <time>2011-11-15T13:57:05Z</time>
      </trkpt>
      <trkpt lat="43.52451" lon="5.52143">
        <ele>254.41</ele>
        <time>2011-11-15T13:57:23Z</time>
      </trkpt>
      <trkpt lat="43.52449" lon="5.52132">
        <ele>257.29</ele>
        <time>2011-11-15T13:57:38Z</time>
      </trkpt>
      <trkpt lat="43.5245" lon="5.52116">
        <ele>254.41</ele>
        <time>2011-11-15T13:57:56Z</time>
      </trkpt>
      <trkpt lat="43.52455" lon="5.52102">
        <ele>252</ele>
        <time>2011-11-15T13:58:11Z</time>
      </trkpt>
      <trkpt lat="43.52452" lon="5.5209">
        <ele>255.85</ele>
        <time>2011-11-15T13:58:22Z</time>
      </trkpt>
      <trkpt lat="43.52442" lon="5.52073">
        <ele>252.96</ele>
        <time>2011-11-15T13:58:39Z</time>
      </trkpt>
      <trkpt lat="43.52431" lon="5.5206">
        <ele>249.12</ele>
        <time>2011-11-15T13:58:54Z</time>
      </trkpt>
      <trkpt lat="43.52423" lon="5.52042">
        <ele>249.12</ele>
        <time>2011-11-15T13:59:09Z</time>
      </trkpt>
      <trkpt lat="43.52424" lon="5.52038">
        <ele>249.12</ele>
        <time>2011-11-15T13:59:12Z</time>
      </trkpt>
      <trkpt lat="43.52432" lon="5.52013">
        <ele>244.79</ele>
        <time>2011-11-15T13:59:27Z</time>
      </trkpt>
      <trkpt lat="43.52432" lon="5.5201">
        <ele>246.72</ele>
        <time>2011-11-15T13:59:29Z</time>
      </trkpt>
      <trkpt lat="43.52435" lon="5.51986">
        <ele>246.23</ele>
        <time>2011-11-15T13:59:43Z</time>
      </trkpt>
      <trkpt lat="43.52448" lon="5.51968">
        <ele>239.99</ele>
        <time>2011-11-15T13:59:57Z</time>
      </trkpt>
      <trkpt lat="43.52459" lon="5.51953">
        <ele>243.35</ele>
        <time>2011-11-15T14:00:10Z</time>
      </trkpt>
      <trkpt lat="43.52458" lon="5.51923">
        <ele>243.35</ele>
        <time>2011-11-15T14:00:27Z</time>
      </trkpt>
      <trkpt lat="43.52461" lon="5.51906">
        <ele>242.39</ele>
        <time>2011-11-15T14:00:38Z</time>
      </trkpt>
      <trkpt lat="43.52462" lon="5.51904">
        <ele>241.91</ele>
        <time>2011-11-15T14:00:39Z</time>
      </trkpt>
      <trkpt lat="43.52467" lon="5.51875">
        <ele>240.95</ele>
        <time>2011-11-15T14:00:57Z</time>
      </trkpt>
      <trkpt lat="43.52474" lon="5.5185">
        <ele>240.95</ele>
        <time>2011-11-15T14:01:14Z</time>
      </trkpt>
      <trkpt lat="43.52478" lon="5.51839">
        <ele>242.87</ele>
        <time>2011-11-15T14:01:23Z</time>
      </trkpt>
      <trkpt lat="43.52481" lon="5.51819">
        <ele>244.31</ele>
        <time>2011-11-15T14:01:39Z</time>
      </trkpt>
      <trkpt lat="43.52483" lon="5.51804">
        <ele>247.68</ele>
        <time>2011-11-15T14:01:50Z</time>
      </trkpt>
      <trkpt lat="43.52484" lon="5.51799">
        <ele>246.72</ele>
        <time>2011-11-15T14:01:53Z</time>
      </trkpt>
      <trkpt lat="43.52482" lon="5.51789">
        <ele>249.6</ele>
        <time>2011-11-15T14:01:59Z</time>
      </trkpt>
      <trkpt lat="43.52481" lon="5.51787">
        <ele>249.6</ele>
        <time>2011-11-15T14:02:01Z</time>
      </trkpt>
      <trkpt lat="43.52477" lon="5.5176">
        <ele>248.64</ele>
        <time>2011-11-15T14:02:18Z</time>
      </trkpt>
      <trkpt lat="43.52474" lon="5.51733">
        <ele>247.2</ele>
        <time>2011-11-15T14:02:35Z</time>
      </trkpt>
      <trkpt lat="43.52474" lon="5.5171">
        <ele>247.2</ele>
        <time>2011-11-15T14:02:53Z</time>
      </trkpt>
      <trkpt lat="43.52475" lon="5.51691">
        <ele>246.72</ele>
        <time>2011-11-15T14:03:08Z</time>
      </trkpt>
      <trkpt lat="43.52478" lon="5.51674">
        <ele>248.64</ele>
        <time>2011-11-15T14:03:20Z</time>
      </trkpt>
      <trkpt lat="43.52477" lon="5.51661">
        <ele>247.68</ele>
        <time>2011-11-15T14:03:28Z</time>
      </trkpt>
      <trkpt lat="43.52477" lon="5.51641">
        <ele>244.31</ele>
        <time>2011-11-15T14:03:43Z</time>
      </trkpt>
      <trkpt lat="43.52481" lon="5.51621">
        <ele>242.39</ele>
        <time>2011-11-15T14:03:57Z</time>
      </trkpt>
      <trkpt lat="43.5248" lon="5.51599">
        <ele>240.47</ele>
        <time>2011-11-15T14:04:12Z</time>
      </trkpt>
      <trkpt lat="43.5248" lon="5.51581">
        <ele>239.99</ele>
        <time>2011-11-15T14:04:24Z</time>
      </trkpt>
      <trkpt lat="43.5248" lon="5.51558">
        <ele>240.47</ele>
        <time>2011-11-15T14:04:39Z</time>
      </trkpt>
      <trkpt lat="43.52481" lon="5.51534">
        <ele>235.18</ele>
        <time>2011-11-15T14:04:58Z</time>
      </trkpt>
      <trkpt lat="43.52477" lon="5.51513">
        <ele>231.81</ele>
        <time>2011-11-15T14:05:15Z</time>
      </trkpt>
      <trkpt lat="43.52478" lon="5.51496">
        <ele>228.45</ele>
        <time>2011-11-15T14:05:30Z</time>
      </trkpt>
      <trkpt lat="43.52474" lon="5.51494">
        <ele>227.97</ele>
        <time>2011-11-15T14:05:34Z</time>
      </trkpt>
      <trkpt lat="43.5246" lon="5.51509">
        <ele>223.64</ele>
        <time>2011-11-15T14:05:51Z</time>
      </trkpt>
      <trkpt lat="43.52448" lon="5.51522">
        <ele>222.68</ele>
        <time>2011-11-15T14:06:06Z</time>
      </trkpt>
      <trkpt lat="43.52432" lon="5.51528">
        <ele>224.12</ele>
        <time>2011-11-15T14:06:23Z</time>
      </trkpt>
      <trkpt lat="43.52416" lon="5.51522">
        <ele>221.24</ele>
        <time>2011-11-15T14:06:41Z</time>
      </trkpt>
      <trkpt lat="43.52409" lon="5.51512">
        <ele>217.4</ele>
        <time>2011-11-15T14:06:53Z</time>
      </trkpt>
      <trkpt lat="43.52392" lon="5.51501">
        <ele>211.15</ele>
        <time>2011-11-15T14:07:13Z</time>
      </trkpt>
      <trkpt lat="43.52378" lon="5.51483">
        <ele>213.07</ele>
        <time>2011-11-15T14:07:28Z</time>
      </trkpt>
      <trkpt lat="43.52362" lon="5.51468">
        <ele>213.07</ele>
        <time>2011-11-15T14:07:46Z</time>
      </trkpt>
      <trkpt lat="43.52341" lon="5.51463">
        <ele>213.07</ele>
        <time>2011-11-15T14:08:07Z</time>
      </trkpt>
      <trkpt lat="43.52323" lon="5.5146">
        <ele>211.63</ele>
        <time>2011-11-15T14:08:25Z</time>
      </trkpt>
      <trkpt lat="43.52309" lon="5.51454">
        <ele>208.26</ele>
        <time>2011-11-15T14:08:42Z</time>
      </trkpt>
      <trkpt lat="43.52297" lon="5.5145">
        <ele>207.78</ele>
        <time>2011-11-15T14:08:55Z</time>
      </trkpt>
      <trkpt lat="43.52277" lon="5.51449">
        <ele>210.67</ele>
        <time>2011-11-15T14:09:12Z</time>
      </trkpt>
      <trkpt lat="43.52264" lon="5.51444">
        <ele>207.78</ele>
        <time>2011-11-15T14:09:26Z</time>
      </trkpt>
      <trkpt lat="43.52256" lon="5.51448">
        <ele>211.63</ele>
        <time>2011-11-15T14:09:40Z</time>
      </trkpt>
      <trkpt lat="43.5224" lon="5.51442">
        <ele>210.19</ele>
        <time>2011-11-15T14:09:57Z</time>
      </trkpt>
      <trkpt lat="43.52226" lon="5.51439">
        <ele>205.38</ele>
        <time>2011-11-15T14:10:12Z</time>
      </trkpt>
      <trkpt lat="43.52217" lon="5.5143">
        <ele>198.65</ele>
        <time>2011-11-15T14:10:29Z</time>
      </trkpt>
      <trkpt lat="43.52218" lon="5.51411">
        <ele>194.32</ele>
        <time>2011-11-15T14:10:43Z</time>
      </trkpt>
      <trkpt lat="43.52214" lon="5.51384">
        <ele>195.28</ele>
        <time>2011-11-15T14:11:00Z</time>
      </trkpt>
      <trkpt lat="43.5221" lon="5.51347">
        <ele>194.32</ele>
        <time>2011-11-15T14:11:23Z</time>
      </trkpt>
      <trkpt lat="43.52198" lon="5.51317">
        <ele>192.88</ele>
        <time>2011-11-15T14:11:44Z</time>
      </trkpt>
      <trkpt lat="43.52186" lon="5.51285">
        <ele>191.44</ele>
        <time>2011-11-15T14:12:06Z</time>
      </trkpt>
      <trkpt lat="43.52179" lon="5.51257">
        <ele>191.44</ele>
        <time>2011-11-15T14:12:25Z</time>
      </trkpt>
      <trkpt lat="43.5218" lon="5.51227">
        <ele>190</ele>
        <time>2011-11-15T14:12:43Z</time>
      </trkpt>
      <trkpt lat="43.52182" lon="5.51193">
        <ele>185.67</ele>
        <time>2011-11-15T14:13:04Z</time>
      </trkpt>
      <trkpt lat="43.52192" lon="5.51168">
        <ele>183.27</ele>
        <time>2011-11-15T14:13:22Z</time>
      </trkpt>
      <trkpt lat="43.52199" lon="5.51143">
        <ele>180.38</ele>
        <time>2011-11-15T14:13:40Z</time>
      </trkpt>
      <trkpt lat="43.52201" lon="5.51119">
        <ele>180.87</ele>
        <time>2011-11-15T14:13:56Z</time>
      </trkpt>
      <trkpt lat="43.52206" lon="5.51095">
        <ele>179.42</ele>
        <time>2011-11-15T14:14:13Z</time>
      </trkpt>
      <trkpt lat="43.52201" lon="5.51093">
        <ele>180.38</ele>
        <time>2011-11-15T14:14:24Z</time>
      </trkpt>
      <trkpt lat="43.52198" lon="5.51076">
        <ele>180.87</ele>
        <time>2011-11-15T14:14:35Z</time>
      </trkpt>
      <trkpt lat="43.52197" lon="5.51053">
        <ele>180.87</ele>
        <time>2011-11-15T14:14:51Z</time>
      </trkpt>
      <trkpt lat="43.52197" lon="5.51046">
        <ele>177.5</ele>
        <time>2011-11-15T14:14:58Z</time>
      </trkpt>
      <trkpt lat="43.52198" lon="5.51037">
        <ele>175.1</ele>
        <time>2011-11-15T14:15:13Z</time>
      </trkpt>
      <trkpt lat="43.52195" lon="5.51036">
        <ele>176.54</ele>
        <time>2011-11-15T14:15:27Z</time>
      </trkpt>
    </trkseg>
  </trk>
</gpx>